SondeTracker

Meteorological Radiosondes Database

Operations

Sounding was ended - last measurement: 2022-12-07 13:12:58z

MAP
About Radiosonde

Number: U2750228

Launch Site: Eskmeals (GB)

Type: RS41

AUX: NO

Frequency: 405.10 MHz

Max Speed: 102 km/h at 24459 m

Average Speed: 54.19 km/h

Max Altitude: 25401 m

Average Ascent Speed: 3.93 m/s

Average Descent Speed: 9.28 m/s

Status: UNKNOWN

Status Changes
Launch Site Type AUX Frequency Status Finder Landing Point Description Changes made by
APRS Statistics

Received Frames: 502

First Frame [UTC]: 2022-12-07 10:42:49z

Last Frame [UTC]: 2022-12-07 13:12:58z

Receivers: F5RZC-14, G3HRZ, G4VFL-14, M0DMP-12, M0NRD, M1CJE-11, M1CTK-10, M1CTK-14, PA3EIV-14

Flight Time: 02:30:09 h

Distance From First Measurement: 127.20 km

Nearest City: Knutsford (GB) [5.50 km]

Nearest Hunter: io [18.38 km]

Ground Altitude: 62 m

Distance from QTH: 0.00 km

APRS Data
Receiver Number Date/Time [UTC] φ λ Course [°] Speed [km/h] Altitude [m] Description
G3HRZU27502282022-12-07 13:12:5853.3212-2.4474713013162Clb=-5.8m/s t=2.6C h=73.1% p=-1.0hPa 405.101 MHz Type=RS41-SG ser=U2750228 Radiosonde
G3HRZU27502282022-12-07 13:12:3353.3215-2.4478913919214Clb=-5.1m/s t=2.2C h=72.5% p=-1.0hPa 405.101 MHz Type=RS41-SG ser=U2750228 Radiosonde
G3HRZU27502282022-12-07 13:12:0753.3226-2.4494913822349Clb=-4.7m/s t=0.9C h=76.8% p=-1.0hPa 405.101 MHz Type=RS41-SG ser=U2750228 Radiosonde
G3HRZU27502282022-12-07 13:11:4253.3243-2.4512615626493Clb=-4.8m/s t=0.0C h=73.2% p=-1.0hPa 405.101 MHz Type=RS41-SG ser=U2750228 Radiosonde
G3HRZU27502282022-12-07 13:11:1453.3265-2.4521217231638Clb=-5.0m/s t=-0.1C h=65.5% p=-1.0hPa 405.101 MHz Type=RS41-SG ser=U2750228 Radiosonde
G3HRZU27502282022-12-07 13:10:4653.329-2.452717133789Clb=-5.2m/s t=-1.3C h=65.4% p=-1.0hPa 405.101 MHz Type=RS41-SG ser=U2750228 Radiosonde
G3HRZU27502282022-12-07 13:10:1853.3317-2.4534617133947Clb=-5.1m/s t=-2.5C h=67.0% p=-1.0hPa 405.101 MHz Type=RS41-SG ser=U2750228 Radiosonde
G3HRZU27502282022-12-07 13:09:4653.3343-2.45401171311114Clb=-5.4m/s t=-3.9C h=70.1% p=-1.0hPa 405.101 MHz Type=RS41-SG ser=U2750228 Radiosonde
G3HRZU27502282022-12-07 13:09:1353.3366-2.45477164301277Clb=-5.2m/s t=-5.4C h=75.9% p=-1.0hPa 405.101 MHz Type=RS41-SG ser=U2750228 Radiosonde
G3HRZU27502282022-12-07 13:08:3953.339-2.45606159351432Clb=-5.5m/s t=-6.7C h=81.5% p=-1.0hPa 405.101 MHz Type=RS41-SG ser=U2750228 Radiosonde
G3HRZU27502282022-12-07 13:08:0753.3416-2.45763160301594Clb=-4.9m/s t=-7.6C h=79.1% p=-1.0hPa 405.101 MHz Type=RS41-SG ser=U2750228 Radiosonde
G3HRZU27502282022-12-07 13:07:3353.3435-2.45939140281742Clb=-4.7m/s t=-7.4C h=63.2% p=-1.0hPa 405.101 MHz Type=RS41-SG ser=U2750228 Radiosonde
G3HRZU27502282022-12-07 13:06:5253.3456-2.46123162281886Clb=-5.0m/s t=-6.9C h=39.3% p=-1.0hPa 405.101 MHz Type=RS41-SG ser=U2750228 Radiosonde
G3HRZU27502282022-12-07 13:06:1453.3475-2.46162182222035Clb=-5.1m/s t=-6.8C h=29.7% p=-1.0hPa 405.101 MHz Type=RS41-SG ser=U2750228 Radiosonde
G3HRZU27502282022-12-07 13:05:3653.3495-2.46104191302193Clb=-5.7m/s t=-7.8C h=38.1% p=-1.0hPa 405.101 MHz Type=RS41-SG ser=U2750228 Radiosonde
G3HRZU27502282022-12-07 13:04:5153.3521-2.46033186332361Clb=-5.5m/s t=-8.3C h=53.5% p=-1.0hPa 405.101 MHz Type=RS41-SG ser=U2750228 Radiosonde
G3HRZU27502282022-12-07 13:04:1353.3548-2.46034173372526Clb=-5.4m/s t=-8.8C h=60.6% p=-1.0hPa 405.101 MHz Type=RS41-SG ser=U2750228 Radiosonde
G3HRZU27502282022-12-07 13:03:3553.3578-2.4612166392689Clb=-5.4m/s t=-9.5C h=71.1% p=-1.0hPa 405.101 MHz Type=RS41-SG ser=U2750228 Radiosonde
G3HRZU27502282022-12-07 13:02:5553.3608-2.46252163392853Clb=-5.1m/s t=-10.2C h=78.6% p=-1.0hPa 405.101 MHz Type=RS41-SG ser=U2750228 Radiosonde
G3HRZU27502282022-12-07 13:02:1353.3638-2.46447158433014Clb=-5.4m/s t=-11.0C h=77.3% p=-1.0hPa 405.101 MHz Type=RS41-SG ser=U2750228 Radiosonde
G3HRZU27502282022-12-07 13:01:3053.3669-2.46654157463173Clb=-5.2m/s t=-11.8C h=79.8% p=-1.0hPa 405.101 MHz Type=RS41-SG ser=U2750228 Radiosonde
G3HRZU27502282022-12-07 13:00:4053.3705-2.46869159463333Clb=-5.4m/s t=-12.3C h=62.4% p=-1.0hPa 405.101 MHz Type=RS41-SG ser=U2750228 Radiosonde
G3HRZU27502282022-12-07 12:59:5153.3734-2.47089149373499Clb=-5.6m/s t=-13.2C h=63.1% p=-1.0hPa 405.101 MHz Type=RS41-SG ser=U2750228 Radiosonde
G3HRZU27502282022-12-07 12:59:2053.376-2.47359142373671Clb=-5.8m/s t=-14.0C h=58.7% p=-1.0hPa 405.101 MHz Type=RS41-SG ser=U2750228 Radiosonde
G3HRZU27502282022-12-07 12:58:4953.3786-2.47633150413853Clb=-6.0m/s t=-14.7C h=27.7% p=-1.0hPa 405.101 MHz Type=RS41-SG ser=U2750228 Radiosonde
G3HRZU27502282022-12-07 12:58:1853.3817-2.47867164444037Clb=-6.2m/s t=-15.9C h=26.7% p=-1.0hPa 405.101 MHz Type=RS41-SG ser=U2750228 Radiosonde
G3HRZU27502282022-12-07 12:58:0853.4002-2.49313150544963Clb=-5.6m/s t=-21.0C h=19.3% p=-1.0hPa 405.101 MHz Type=RS41-SG ser=U2750228 Radiosonde
M0NRDU27502282022-12-07 12:58:0153.4013-2.49411151545014Clb=-5.8m/s t=-21.3C h=18.7% p=-1.0hPa 405.101 MHz Type=RS41-SG Radiosonde
G4VFL-14U27502282022-12-07 12:57:5853.4033-2.49601151565109Clb=-5.6m/s t=-22.2C h=21.8% 405.10MHz Type=RS41-SG Details on http://radiosondy.info
G4VFL-14U27502282022-12-07 12:57:5753.4053-2.4978152545197Clb=-5.3m/s t=-23.0C h=19.5% 405.10MHz Type=RS41-SG batt=2.6V Details on http://radiosondy.info
G3HRZU27502282022-12-07 12:57:5653.4078-2.50005151545311Clb=-5.6m/s t=-24.0C h=24.6% p=-1.0hPa 405.101 MHz Type=RS41-SG ser=U2750228 Radiosonde
G4VFL-14U27502282022-12-07 12:57:5553.4107-2.50268151565439Clb=-5.3m/s t=-25.1C h=24.0% 405.10MHz Type=RS41-SG batt=2.6V Details on http://radiosondy.info
G3HRZU27502282022-12-07 12:57:5453.4115-2.50345152545476Clb=-5.4m/s t=-25.5C h=30.1% p=-1.0hPa 405.101 MHz Type=RS41-SG ser=U2750228 Radiosonde
G4VFL-14U27502282022-12-07 12:57:5353.4125-2.50435148525518Clb=-5.4m/s t=-25.8C h=26.9% 405.10MHz Type=RS41-SG Details on http://radiosondy.info
G4VFL-14U27502282022-12-07 12:57:5253.4142-2.50628145525604Clb=-5.4m/s t=-25.6C h=10.9% 405.10MHz Type=RS41-SG Details on http://radiosondy.info
G4VFL-14U27502282022-12-07 12:57:5153.4159-2.50827145545692Clb=-5.2m/s t=-25.8C h=10.2% 405.10MHz Type=RS41-SG TxOff=8h02m batt=2.5V Details on http://radiosondy.info
G3HRZU27502282022-12-07 12:57:5053.4182-2.51095147505813Clb=-5.3m/s t=-27.0C h=17.1% p=-1.0hPa 405.101 MHz Type=RS41-SG ser=U2750228 Radiosonde
G3HRZU27502282022-12-07 12:57:4953.4217-2.51463145565982Clb=-5.9m/s t=-28.4C h=23.6% p=-1.0hPa 405.101 MHz Type=RS41-SG ser=U2750228 Radiosonde
M0NRDU27502282022-12-07 12:57:4853.4226-2.51573145596028Clb=-6.1m/s t=-28.8C h=22.0% p=-1.0hPa 405.101 MHz Type=RS41-SG Radiosonde
G4VFL-14U27502282022-12-07 12:57:4753.4242-2.51756144566108Clb=-6.6m/s t=-29.0C h=17.9% 405.10MHz Type=RS41-SG Details on http://radiosondy.info
G3HRZU27502282022-12-07 12:57:4653.4253-2.51894143566171Clb=-6.0m/s t=-29.0C h=10.4% p=-1.0hPa 405.101 MHz Type=RS41-SG ser=U2750228 Radiosonde
M0NRDU27502282022-12-07 12:57:4553.4262-2.52008141546219Clb=-5.9m/s t=-29.4C h=10.5% p=-1.0hPa 405.101 MHz Type=RS41-SG Radiosonde
G3HRZU27502282022-12-07 12:57:4453.4287-2.52355138576365Clb=-7.0m/s t=-30.5C h=9.9% p=-1.0hPa 405.101 MHz Type=RS41-SG ser=U2750228 Radiosonde
G4VFL-14U27502282022-12-07 12:57:4053.4309-2.52691137596505Clb=-6.4m/s t=-31.4C h=11.6% 405.10MHz Type=RS41-SG Details on http://radiosondy.info
G3HRZU27502282022-12-07 12:57:2953.432-2.52849141566567Clb=-6.6m/s t=-31.8C h=14.3% p=-1.0hPa 405.101 MHz Type=RS41-SG ser=U2750228 Radiosonde
G4VFL-14U27502282022-12-07 12:57:2153.4326-2.52923142596601Clb=-6.9m/s t=-32.1C h=17.9% 405.10MHz Type=RS41-SG batt=2.5V Details on http://radiosondy.info
M0NRDU27502282022-12-07 12:57:1453.4329-2.52967141566621Clb=-7.0m/s t=-32.3C h=17.1% p=-1.0hPa 405.101 MHz Type=RS41-SG Radiosonde
G4VFL-14U27502282022-12-07 12:56:5153.4344-2.53149143616705Clb=-6.2m/s t=-33.0C h=26.0% 405.10MHz Type=RS41-SG Details on http://radiosondy.info
G3HRZU27502282022-12-07 12:56:3453.4357-2.53316143596775Clb=-6.5m/s t=-33.4C h=29.7% p=-1.0hPa 405.101 MHz Type=RS41-SG ser=U2750228 Radiosonde
G4VFL-14U27502282022-12-07 12:56:2553.4362-2.53376144616801Clb=-6.8m/s t=-33.5C h=31.6% 405.10MHz Type=RS41-SG Details on http://radiosondy.info
M0NRDU27502282022-12-07 12:56:1753.4368-2.53452143596832Clb=-6.5m/s t=-33.9C h=30.7% p=-1.0hPa 405.101 MHz Type=RS41-SG Radiosonde
G3HRZU27502282022-12-07 12:55:3853.4394-2.53778141576979Clb=-7.0m/s t=-34.9C h=31.0% p=-1.0hPa 405.101 MHz Type=RS41-SG ser=U2750228 Radiosonde
M0NRDU27502282022-12-07 12:55:2253.4404-2.53913140567043Clb=-7.4m/s t=-273.0C h=-1.0% p=-1.0hPa 405.101 MHz Type=RS41-SG Radiosonde
G3HRZU27502282022-12-07 12:54:4653.4429-2.5424142567206Clb=-7.6m/s t=-36.7C h=31.1% p=-1.0hPa 405.101 MHz Type=RS41-SG ser=U2750228 Radiosonde
M0NRDU27502282022-12-07 12:54:3353.4439-2.54364145567272Clb=-6.7m/s t=-273.0C h=-1.0% p=-1.0hPa 405.101 MHz Type=RS41 Radiosonde
G4VFL-14U27502282022-12-07 12:54:3253.4439-2.54364146567272Clb=-6.7m/s t=-37.1C h=38.6% 405.10MHz Type=RS41-SG TxOff=8h06m batt=2.5V Details on http://radiosondy.info
G4VFL-14U27502282022-12-07 12:54:0453.4457-2.54561147547386Clb=-7.3m/s t=-37.7C h=26.5% 405.10MHz Type=RS41-SG Details on http://radiosondy.info
G3HRZU27502282022-12-07 12:53:5553.4464-2.54636143527428Clb=-7.4m/s t=-37.9C h=18.9% p=-1.0hPa 405.101 MHz Type=RS41-SG ser=U2750228 Radiosonde
G4VFL-14U27502282022-12-07 12:53:3953.4475-2.54768145547502Clb=-7.9m/s t=-38.5C h=19.3% 405.10MHz Type=RS41-SG Details on http://radiosondy.info
G4VFL-14U27502282022-12-07 12:53:1053.4493-2.54973146577623Clb=-7.6m/s t=-39.3C h=24.1% 405.10MHz Type=RS41-SG batt=2.5V Details on http://radiosondy.info
G3HRZU27502282022-12-07 12:53:0253.4498-2.55038146567662Clb=-8.0m/s t=-39.7C h=22.5% p=-1.0hPa 405.101 MHz Type=RS41-SG ser=U2750228 Radiosonde
G4VFL-14U27502282022-12-07 12:52:3953.4513-2.55203144577757Clb=-7.9m/s t=-40.3C h=25.8% 405.10MHz Type=RS41-SG Details on http://radiosondy.info
G4VFL-14U27502282022-12-07 12:52:0353.4531-2.5542146567884Clb=-7.9m/s t=-41.0C h=28.9% 405.10MHz Type=RS41-SG Details on http://radiosondy.info
G3HRZU27502282022-12-07 12:51:5753.4534-2.5546146567908Clb=-8.3m/s t=-41.3C h=27.0% p=-1.0hPa 405.101 MHz Type=RS41-SG ser=U2750228 Radiosonde
G4VFL-14U27502282022-12-07 12:51:3353.4548-2.55615147568005Clb=-7.9m/s t=-42.0C h=26.5% 405.10MHz Type=RS41-SG batt=2.5V Details on http://radiosondy.info
G4VFL-14U27502282022-12-07 12:51:0653.4566-2.5581147568125Clb=-8.2m/s t=-42.7C h=24.7% 405.10MHz Type=RS41-SG Details on http://radiosondy.info
G3HRZU27502282022-12-07 12:50:5953.457-2.55862145568156Clb=-8.0m/s t=-43.1C h=22.3% p=-1.0hPa 405.101 MHz Type=RS41-SG ser=U2750228 Radiosonde
G3HRZU27502282022-12-07 12:50:0553.4606-2.5629144578403Clb=-8.0m/s t=-44.2C h=11.2% p=-1.0hPa 405.101 MHz Type=RS41-SG ser=U2750228 Radiosonde
G3HRZU27502282022-12-07 12:49:0553.4644-2.56752142618652Clb=-8.1m/s t=-45.8C h=11.0% p=-1.0hPa 405.101 MHz Type=RS41-SG ser=U2750228 Radiosonde
G4VFL-14U27502282022-12-07 12:48:5853.4649-2.56817141638685Clb=-8.4m/s t=-45.9C h=12.9% 405.10MHz Type=RS41-SG Details on http://radiosondy.info
G4VFL-14U27502282022-12-07 12:48:2653.4669-2.57118138658825Clb=-8.2m/s t=-46.7C h=12.9% 405.10MHz Type=RS41-SG TxOff=8h09m batt=2.5V Details on http://radiosondy.info
G3HRZU27502282022-12-07 12:48:0553.4681-2.57295140658907Clb=-8.2m/s t=-47.3C h=12.0% p=-1.0hPa 405.101 MHz Type=RS41-SG ser=U2750228 Radiosonde
G4VFL-14U27502282022-12-07 12:47:5553.4688-2.57397142658957Clb=-8.2m/s t=-47.6C h=15.6% 405.10MHz Type=RS41-SG Details on http://radiosondy.info
G4VFL-14U27502282022-12-07 12:47:2453.4709-2.57651145639089Clb=-8.2m/s t=-48.4C h=16.6% 405.10MHz Type=RS41-SG Details on http://radiosondy.info
G3HRZU27502282022-12-07 12:47:0253.472-2.57786144619164Clb=-8.5m/s t=-49.1C h=13.9% p=-1.0hPa 405.101 MHz Type=RS41-SG ser=U2750228 Radiosonde
G4VFL-14U27502282022-12-07 12:46:5253.4728-2.57873147639214Clb=-8.2m/s t=-49.3C h=16.0% 405.10MHz Type=RS41-SG batt=2.5V Details on http://radiosondy.info
G4VFL-14U27502282022-12-07 12:46:2453.4748-2.58085148599342Clb=-8.6m/s t=-50.3C h=15.2% 405.10MHz Type=RS41-SG Details on http://radiosondy.info
G3HRZU27502282022-12-07 12:46:0353.476-2.5822147579427Clb=-8.5m/s t=-51.0C h=12.6% p=-1.0hPa 405.101 MHz Type=RS41-SG ser=U2750228 Radiosonde
G4VFL-14U27502282022-12-07 12:45:5553.4766-2.58286148599470Clb=-8.6m/s t=-51.3C h=15.9% 405.10MHz Type=RS41-SG Details on http://radiosondy.info
G4VFL-14U27502282022-12-07 12:45:2653.4787-2.58494150599609Clb=-8.7m/s t=-52.2C h=16.6% 405.10MHz Type=RS41-SG batt=2.6V Details on http://radiosondy.info
G3HRZU27502282022-12-07 12:45:0653.4802-2.58635152659707Clb=-8.9m/s t=-52.9C h=14.1% p=-1.0hPa 405.101 MHz Type=RS41-SG ser=U2750228 Radiosonde
G3HRZU27502282022-12-07 12:44:0253.4846-2.59018154619985Clb=-8.8m/s t=-55.2C h=15.7% p=-1.0hPa 405.101 MHz Type=RS41-SG ser=U2750228 Radiosonde
G3HRZU27502282022-12-07 12:43:2753.4887-2.593121555210262Clb=-8.8m/s t=-56.9C h=15.7% p=-1.0hPa 405.101 MHz Type=RS41-SG ser=U2750228 Radiosonde
G4VFL-14U27502282022-12-07 12:43:2353.4893-2.593591535710306Clb=-8.9m/s t=-57.1C h=19.7% 405.10MHz Type=RS41-SG Details on http://radiosondy.info
G3HRZU27502282022-12-07 12:43:0053.4926-2.596811506510538Clb=-8.6m/s t=-58.0C h=15.8% p=-1.0hPa 405.101 MHz Type=RS41-SG ser=U2750228 Radiosonde
G4VFL-14U27502282022-12-07 12:42:4253.4946-2.598491576110663Clb=-8.7m/s t=-58.2C h=20.7% 405.10MHz Type=RS41-SG Details on http://radiosondy.info
F5RZC-14U27502282022-12-07 12:42:3253.4956-2.599171615910725Clb=-8.6m/s t=-58.7C h=21.2% 405.10MHz Type=RS41-SG batt=2.6V Details on http://radiosondy.info
G4VFL-14U27502282022-12-07 12:42:2353.4968-2.599781655910795Clb=-8.6m/s t=-59.1C h=22.2% 405.10MHz Type=RS41-SG TxOff=8h13m batt=2.5V Details on http://radiosondy.info
G3HRZU27502282022-12-07 12:42:2153.4971-2.59991665710812Clb=-8.7m/s t=-58.9C h=17.3% p=-1.0hPa 405.101 MHz Type=RS41-SG ser=U2750228 Radiosonde
F5RZC-14U27502282022-12-07 12:42:1353.4978-2.600161695910856Clb=-8.3m/s t=-58.9C h=21.6% 405.10MHz Type=RS41-SG Details on http://radiosondy.info
G4VFL-14U27502282022-12-07 12:42:0153.4991-2.600541725710935Clb=-8.6m/s t=-59.1C h=22.2% 405.10MHz Type=RS41-SG Details on http://radiosondy.info
F5RZC-14U27502282022-12-07 12:41:5553.4999-2.600761725410987Clb=-8.6m/s t=-59.5C h=22.8% 405.10MHz Type=RS41-SG Details on http://radiosondy.info
G4VFL-14U27502282022-12-07 12:41:4653.5012-2.601081714811068Clb=-8.8m/s t=-60.2C h=23.6% 405.10MHz Type=RS41-SG Details on http://radiosondy.info
G3HRZU27502282022-12-07 12:41:4553.5014-2.601161695011086Clb=-9.0m/s t=-60.3C h=19.0% p=-1.0hPa 405.101 MHz Type=RS41-SG ser=U2750228 Radiosonde
F5RZC-14U27502282022-12-07 12:41:4053.5019-2.60131696511122Clb=-9.0m/s t=-60.6C h=23.9% 405.10MHz Type=RS41-SG batt=2.5V Details on http://radiosondy.info
G4VFL-14U27502282022-12-07 12:41:3053.503-2.601751654411213Clb=-8.9m/s t=-61.1C h=24.3% 405.10MHz Type=RS41-SG batt=2.6V Details on http://radiosondy.info
G3HRZU27502282022-12-07 12:41:1453.5048-2.602581604111368Clb=-9.3m/s t=-61.5C h=18.3% p=-1.0hPa 405.101 MHz Type=RS41-SG ser=U2750228 Radiosonde
G4VFL-14U27502282022-12-07 12:40:5453.5645-2.67971504418793Clb=-15.6m/s t=-62.0C h=5.8% 405.10MHz Type=RS41-SG Details on http://radiosondy.info
M1CJE-11U27502282022-12-07 12:40:4853.565-2.680171474418870Clb=-16.0m/s t=-62.2C h=1.4% p=-1.0hPa 405.102 MHz Type=RS41-SG Radiosonde auto_rx v1.5.0
G3HRZU27502282022-12-07 12:40:3353.5655-2.680721434618949Clb=-16.2m/s t=-62.2C h=1.9% p=-1.0hPa 405.101 MHz Type=RS41-SG ser=U2750228 Radiosonde
G4VFL-14U27502282022-12-07 12:40:2253.5659-2.681271413319028Clb=-17.0m/s t=-61.9C h=5.6% 405.10MHz Type=RS41-SG batt=2.5V Details on http://radiosondy.info
M0NRDU27502282022-12-07 12:40:1553.5662-2.681621483319094Clb=-16.4m/s t=-61.6C h=1.8% p=-1.0hPa 405.101 MHz Type=RS41-SG Radiosonde
G4VFL-14U27502282022-12-07 12:39:4753.5669-2.682531243319274Clb=-16.9m/s t=-61.7C h=5.4% 405.10MHz Type=RS41-SG Details on http://radiosondy.info
F5RZC-14U27502282022-12-07 12:39:2453.5671-2.683321154319392Clb=-17.1m/s t=-62.3C h=5.8% 405.10MHz Type=RS41-SG Details on http://radiosondy.info
G3HRZU27502282022-12-07 12:39:1753.5672-2.683811153319460Clb=-17.2m/s t=-62.1C h=1.8% p=-1.0hPa 405.101 MHz Type=RS41-SG ser=U2750228 Radiosonde
G4VFL-14U27502282022-12-07 12:39:0353.5675-2.684571205219544Clb=-17.4m/s t=-62.4C h=5.9% 405.10MHz Type=RS41-SG Details on http://radiosondy.info
M0NRDU27502282022-12-07 12:38:5553.5678-2.685451275419628Clb=-18.0m/s t=-62.7C h=1.9% p=-1.0hPa 405.101 MHz Type=RS41-SG Radiosonde
F5RZC-14U27502282022-12-07 12:38:4953.5679-2.685621315219645Clb=-17.8m/s t=-62.6C h=6.2% 405.10MHz Type=RS41-SG Details on http://radiosondy.info
G4VFL-14U27502282022-12-07 12:38:2553.5688-2.68711364419820Clb=-17.4m/s t=-61.1C h=5.4% 405.10MHz Type=RS41-SG batt=2.6V Details on http://radiosondy.info
F5RZC-14U27502282022-12-07 12:38:1353.5692-2.687811344419907Clb=-17.7m/s t=-61.2C h=5.4% 405.10MHz Type=RS41-SG batt=2.6V Details on http://radiosondy.info
G3HRZU27502282022-12-07 12:38:0553.5696-2.688511204119994Clb=-17.9m/s t=-61.2C h=1.6% p=-1.0hPa 405.101 MHz Type=RS41-SG ser=U2750228 Radiosonde
G4VFL-14U27502282022-12-07 12:37:5053.5698-2.68951155620100Clb=-17.8m/s t=-61.4C h=5.4% 405.10MHz Type=RS41-SG Details on http://radiosondy.info
M0NRDU27502282022-12-07 12:37:4553.5701-2.690221165020172Clb=-18.6m/s t=-61.3C h=1.6% p=-1.0hPa 405.101 MHz Type=RS41-SG Radiosonde
F5RZC-14U27502282022-12-07 12:37:4153.5701-2.690221176920172Clb=-18.5m/s t=-61.2C h=5.4% 405.10MHz Type=RS41-SG Details on http://radiosondy.info
G4VFL-14U27502282022-12-07 12:37:1553.571-2.692441335720378Clb=-19.1m/s t=-61.3C h=5.3% 405.10MHz Type=RS41-SG Details on http://radiosondy.info
G3HRZU27502282022-12-07 12:36:5453.572-2.694121305620568Clb=-19.3m/s t=-61.8C h=1.7% p=-1.0hPa 405.101 MHz Type=RS41-SG ser=U2750228 Radiosonde
M0NRDU27502282022-12-07 12:36:3453.5728-2.69571325720738Clb=-19.7m/s t=-61.9C h=1.7% p=-1.0hPa 405.101 MHz Type=RS41-SG Radiosonde
M1CJE-11U27502282022-12-07 12:36:0553.5744-2.697741506920988Clb=-19.8m/s t=-62.0C h=1.2% p=-1.0hPa 405.102 MHz Type=RS41-SG Radiosonde auto_rx v1.5.0
G3HRZU27502282022-12-07 12:35:4153.5758-2.698761607021161Clb=-20.4m/s t=-62.1C h=1.6% p=-1.0hPa 405.101 MHz Type=RS41-SG ser=U2750228 Radiosonde
M0NRDU27502282022-12-07 12:35:2353.5773-2.699451655921337Clb=-19.6m/s t=-62.5C h=1.6% p=-1.0hPa 405.101 MHz Type=RS41-SG Radiosonde
G4VFL-14U27502282022-12-07 12:34:2853.5797-2.700831545021726Clb=-19.5m/s t=-65.0C h=6.3% 405.10MHz Type=RS41-SG TxOff=8h27m batt=2.6V Details on http://radiosondy.info
G3HRZU27502282022-12-07 12:34:2453.5799-2.7011514421764Clb=-19.8m/s t=-65.2C h=1.9% p=-1.0hPa 405.101 MHz Type=RS41-SG ser=U2750228 Radiosonde
M0NRDU27502282022-12-07 12:34:0553.5807-2.70211325421937Clb=-19.8m/s t=-65.5C h=1.9% p=-1.0hPa 405.101 MHz Type=RS41-SG Radiosonde
G4VFL-14U27502282022-12-07 12:33:5353.5812-2.702951426522036Clb=-20.4m/s t=-65.7C h=6.8% 405.10MHz Type=RS41-SG Details on http://radiosondy.info
M1CJE-11U27502282022-12-07 12:33:4353.5816-2.703541415422114Clb=-20.1m/s t=-65.8C h=1.5% p=-1.0hPa 405.102 MHz Type=RS41-SG Radiosonde auto_rx v1.5.0
M1CTK-14U27502282022-12-07 12:33:2853.5822-2.704391356722212Clb=-20.1m/s t=-66.1C h=2.3% p=-1.0hPa 405.100 MHz Type=RS41-SG ser=U2750228 Radiosonde auto_rx v1.5.9
G4VFL-14U27502282022-12-07 12:33:1453.5831-2.705751467422350Clb=-19.4m/s t=-64.4C h=6.3% 405.10MHz Type=RS41-SG Details on http://radiosondy.info
G3HRZU27502282022-12-07 12:33:1353.5833-2.705921467222369Clb=-19.7m/s t=-64.2C h=1.8% p=-1.0hPa 405.101 MHz Type=RS41-SG ser=U2750228 Radiosonde
M0NRDU27502282022-12-07 12:32:5453.5847-2.707241547822549Clb=-20.4m/s t=-63.6C h=1.7% p=-1.0hPa 405.101 MHz Type=RS41-SG Radiosonde
G4VFL-14U27502282022-12-07 12:32:4253.5856-2.707891586922649Clb=-19.6m/s t=-64.0C h=5.9% 405.10MHz Type=RS41-SG batt=2.6V Details on http://radiosondy.info
M1CJE-11U27502282022-12-07 12:32:3553.5861-2.708241597022708Clb=-19.5m/s t=-64.3C h=9.8% p=-1.0hPa 405.102 MHz Type=RS41-SG Radiosonde auto_rx v1.5.0
M1CTK-14U27502282022-12-07 12:32:2153.5869-2.708671616722807Clb=-20.7m/s t=-64.4C h=1.8% p=-1.0hPa 405.100 MHz Type=RS41-SG ser=U2750228 Radiosonde auto_rx v1.5.9
F5RZC-14U27502282022-12-07 12:32:2053.5869-2.708671626722807Clb=-20.6m/s t=-64.4C h=6.1% 405.10MHz Type=RS41-SG Details on http://radiosondy.info
G4VFL-14U27502282022-12-07 12:32:0353.5881-2.709441547022970Clb=-20.9m/s t=-64.2C h=6.2% 405.10MHz Type=RS41-SG Details on http://radiosondy.info
G3HRZU27502282022-12-07 12:32:0153.5882-2.709571506322990Clb=-21.2m/s t=-64.2C h=1.8% p=-1.0hPa 405.101 MHz Type=RS41-SG ser=U2750228 Radiosonde
F5RZC-14U27502282022-12-07 12:31:4753.5891-2.710541437223115Clb=-20.3m/s t=-64.0C h=6.0% 405.10MHz Type=RS41-SG batt=2.6V Details on http://radiosondy.info
M0NRDU27502282022-12-07 12:31:4153.5895-2.711111447423177Clb=-20.3m/s t=-64.3C h=1.8% p=-1.0hPa 405.101 MHz Type=RS41-SG Radiosonde
G4VFL-14U27502282022-12-07 12:31:2853.5903-2.711961526523279Clb=-20.6m/s t=-64.2C h=5.9% 405.10MHz Type=RS41-SG Details on http://radiosondy.info
M1CJE-11U27502282022-12-07 12:31:2353.5906-2.712241557223320Clb=-20.9m/s t=-273.0C h=-1.0% p=-1.0hPa 405.102 MHz Type=RS41-SG Radiosonde auto_rx v1.5.0
F5RZC-14U27502282022-12-07 12:31:0653.5914-2.712781595923423Clb=-21.0m/s t=-64.2C h=5.7% 405.10MHz Type=RS41-SG Details on http://radiosondy.info
G4VFL-14U27502282022-12-07 12:30:4853.5924-2.713671485723591Clb=-22.1m/s t=-64.6C h=5.8% 405.10MHz Type=RS41-SG batt=2.5V Details on http://radiosondy.info
G3HRZU27502282022-12-07 12:30:4353.5927-2.713931445923634Clb=-21.5m/s t=-64.9C h=1.6% p=-1.0hPa 405.101 MHz Type=RS41-SG ser=U2750228 Radiosonde
F5RZC-14U27502282022-12-07 12:30:3053.5932-2.714681426723742Clb=-22.3m/s t=-65.5C h=6.0% 405.10MHz Type=RS41-SG Details on http://radiosondy.info
M0NRDU27502282022-12-07 12:30:2353.5937-2.715341355923830Clb=-22.8m/s t=-66.0C h=1.8% p=-1.0hPa 405.101 MHz Type=RS41-SG Radiosonde
M1CJE-11U27502282022-12-07 12:30:1153.5943-2.71631325623964Clb=-22.9m/s t=-273.0C h=-1.0% p=-1.0hPa 405.102 MHz Type=RS41 Radiosonde auto_rx v1.5.0
G4VFL-14U27502282022-12-07 12:30:0853.5943-2.71631336323964Clb=-22.8m/s t=-66.3C h=6.5% 405.10MHz Type=RS41-SG Details on http://radiosondy.info
M1CTK-14U27502282022-12-07 12:29:5353.5949-2.717431346724099Clb=-23.5m/s t=-67.1C h=2.0% p=-1.0hPa 405.100 MHz Type=RS41-SG ser=U2750228 Radiosonde auto_rx v1.5.9
G3HRZU27502282022-12-07 12:29:2553.5963-2.719271448324330Clb=-23.7m/s t=-67.2C h=2.1% p=-1.0hPa 405.101 MHz Type=RS41-SG ser=U2750228 Radiosonde
M0NRDU27502282022-12-07 12:29:0553.598-2.721481409824542Clb=-24.9m/s t=-66.0C h=1.8% p=-1.0hPa 405.101 MHz Type=RS41-SG Radiosonde
M1CJE-11U27502282022-12-07 12:28:5553.5989-2.722591468524663Clb=-24.8m/s t=-273.0C h=-1.0% p=-1.0hPa 405.102 MHz Type=RS41 Radiosonde auto_rx v1.5.0
M1CTK-10U27502282022-12-07 12:28:4053.5999-2.723691427424812Clb=-25.7m/s t=-66.3C h=-1.0% p=-1.0hPa 405.101 MHz Type=RS41-SG ser=U2750228 Radiosonde auto_rx v1.5.9
G3HRZU27502282022-12-07 12:28:1253.6016-2.725481448025117Clb=-27.9m/s t=-67.3C h=1.8% p=-1.0hPa 405.101 MHz Type=RS41-SG ser=U2750228 Radiosonde
M0NRDU27502282022-12-07 12:27:4853.6031-2.72761449125384Clb=-17.6m/s t=-67.7C h=2.0% p=-1.0hPa 405.101 MHz Type=RS41-SG Radiosonde
M0DMP-12U27502282022-12-07 12:27:3953.6038-2.728491439325401Clb=3.5m/s t=-67.6C h=-1.0% p=-1.0hPa 405.101 MHz Type=RS41-SG Radiosonde auto_rx v1.5.9
M1CTK-14U27502282022-12-07 12:27:2453.6048-2.729791419825380Clb=5.1m/s t=-67.6C h=1.9% p=-1.0hPa 405.100 MHz Type=RS41-SG ser=U2750228 Radiosonde auto_rx v1.5.9
M1CTK-10U27502282022-12-07 12:27:2353.605-2.730041449625375Clb=4.8m/s t=-67.6C h=-1.0% p=-1.0hPa 405.101 MHz Type=RS41-SG ser=U2750228 Radiosonde auto_rx v1.5.9
G4VFL-14U27502282022-12-07 12:27:1153.6058-2.730921469325357Clb=4.3m/s t=-67.2C h=6.8% 405.10MHz Type=RS41-SG Details on http://radiosondy.info
PA3EIV-14U27502282022-12-07 12:27:0353.6063-2.73161459425345Clb=4.8m/s p=23.2hPa t=0.0C h=0.0% Type=RS41 SV=20215 V=2.5V S=-16.2dB Details on http://radiosondy.info
G3HRZU27502282022-12-07 12:26:5153.6073-2.732711439825323Clb=4.4m/s t=-67.7C h=1.9% p=-1.0hPa 405.101 MHz Type=RS41-SG ser=U2750228 Radiosonde
G4VFL-14U27502282022-12-07 12:26:3253.6088-2.734451508725287Clb=4.9m/s t=-67.7C h=7.3% 405.10MHz Type=RS41-SG TxPastBurst=8h30m batt=2.5V Details on http://radiosondy.info
M0NRDU27502282022-12-07 12:26:2953.609-2.734661489325282Clb=4.1m/s t=-67.8C h=2.0% p=-1.0hPa 405.101 MHz Type=RS41-SG Radiosonde
M0DMP-12U27502282022-12-07 12:26:2253.6096-2.735261499125267Clb=5.1m/s t=-273.0C h=-1.0% p=-1.0hPa 405.101 MHz Type=RS41-SG Radiosonde auto_rx v1.5.9
M1CTK-14U27502282022-12-07 12:26:1053.6105-2.736261438325243Clb=4.7m/s t=-67.5C h=1.9% p=-1.0hPa 405.100 MHz Type=RS41-SG ser=U2750228 Radiosonde auto_rx v1.5.9
G4VFL-14U27502282022-12-07 12:25:5253.6117-2.737461487825207Clb=4.8m/s t=-67.3C h=6.9% 405.10MHz Type=RS41-SG Details on http://radiosondy.info
G3HRZU27502282022-12-07 12:25:3753.6128-2.73871467825172Clb=5.9m/s t=-67.4C h=2.0% p=-1.0hPa 405.101 MHz Type=RS41-SG ser=U2750228 Radiosonde
G4VFL-14U27502282022-12-07 12:25:1753.614-2.740241406725130Clb=4.7m/s t=-67.3C h=6.9% 405.10MHz Type=RS41-SG Details on http://radiosondy.info
M0NRDU27502282022-12-07 12:25:1553.6141-2.740431396925125Clb=4.8m/s t=-67.4C h=1.9% p=-1.0hPa 405.101 MHz Type=RS41-SG Radiosonde
F5RZC-14U27502282022-12-07 12:24:5653.6149-2.741411466525094Clb=4.9m/s t=-67.4C h=6.9% 405.10MHz Type=RS41-SG TxPastBurst=8h30m batt=2.6V Details on http://radiosondy.info
M1CTK-10U27502282022-12-07 12:24:5453.6152-2.741731456725084Clb=5.9m/s t=-273.0C h=-1.0% p=-1.0hPa 405.101 MHz Type=RS41 ser=U2750228 Radiosonde auto_rx v1.5.9
M1CTK-14U27502282022-12-07 12:24:5353.6152-2.741731456725084Clb=5.9m/s t=-67.5C h=1.9% p=-1.0hPa 405.100 MHz Type=RS41-SG ser=U2750228 Radiosonde auto_rx v1.5.9
G4VFL-14U27502282022-12-07 12:24:3653.6159-2.742681426525051Clb=5.2m/s t=-67.3C h=7.1% 405.10MHz Type=RS41-SG batt=2.5V Details on http://radiosondy.info
F5RZC-14U27502282022-12-07 12:24:1953.6168-2.743791456925014Clb=4.9m/s t=-67.2C h=7.2% 405.10MHz Type=RS41-SG Details on http://radiosondy.info
G3HRZU27502282022-12-07 12:24:1653.6171-2.744121436525002Clb=5.4m/s t=-67.2C h=1.9% p=-1.0hPa 405.101 MHz Type=RS41-SG ser=U2750228 Radiosonde
G4VFL-14U27502282022-12-07 12:24:0153.618-2.745211517024964Clb=5.2m/s t=-66.9C h=7.0% 405.10MHz Type=RS41-SG Details on http://radiosondy.info
F5RZC-14U27502282022-12-07 12:23:5553.619-2.74611487224932Clb=5.9m/s t=-66.6C h=7.0% 405.10MHz Type=RS41-SG Details on http://radiosondy.info
M1CTK-14U27502282022-12-07 12:23:5453.6193-2.746441446724920Clb=5.6m/s t=-66.4C h=1.9% p=-1.0hPa 405.100 MHz Type=RS41-SG ser=U2750228 Radiosonde auto_rx v1.5.9
G4VFL-14U27502282022-12-07 12:23:5353.6204-2.747711537024875Clb=4.9m/s t=-66.2C h=6.9% 405.10MHz Type=RS41-SG Details on http://radiosondy.info
F5RZC-14U27502282022-12-07 12:23:5253.6212-2.748561447424846Clb=5.9m/s t=-65.9C h=6.7% 405.10MHz Type=RS41-SG batt=2.5V Details on http://radiosondy.info
G3HRZU27502282022-12-07 12:23:5053.6216-2.749091446724830Clb=5.7m/s t=-65.9C h=1.8% p=-1.0hPa 405.101 MHz Type=RS41-SG ser=U2750228 Radiosonde
G4VFL-14U27502282022-12-07 12:23:4253.6228-2.750381488524785Clb=6.1m/s t=-65.5C h=6.4% 405.10MHz Type=RS41-SG batt=2.5V Details on http://radiosondy.info
M1CTK-14U27502282022-12-07 12:23:3453.6236-2.751341447624755Clb=6.2m/s t=-273.0C h=-1.0% p=-1.0hPa 405.100 MHz Type=RS41-SG ser=U2750228 Radiosonde auto_rx v1.5.9
G3HRZU27502282022-12-07 12:23:0753.6265-2.754731438024649Clb=6.5m/s t=-65.1C h=1.7% p=-1.0hPa 405.101 MHz Type=RS41-SG ser=U2750228 Radiosonde
M0NRDU27502282022-12-07 12:22:5853.6281-2.756661368924593Clb=5.8m/s t=-64.6C h=1.8% p=-1.0hPa 405.101 MHz Type=RS41-SG Radiosonde
G3HRZU27502282022-12-07 12:22:4953.6319-2.7622813810224459Clb=5.5m/s t=-64.5C h=1.7% p=-1.0hPa 405.101 MHz Type=RS41-SG ser=U2750228 Radiosonde
M0NRDU27502282022-12-07 12:22:4653.6336-2.764811369824404Clb=6.3m/s t=-64.9C h=1.7% p=-1.0hPa 405.101 MHz Type=RS41-SG Radiosonde
G4VFL-14U27502282022-12-07 12:22:4253.6353-2.767321439324351Clb=6.0m/s t=-65.0C h=6.2% 405.10MHz Type=RS41-SG Details on http://radiosondy.info
G3HRZU27502282022-12-07 12:22:1553.6376-2.770381469124276Clb=5.8m/s t=-65.6C h=1.8% p=-1.0hPa 405.101 MHz Type=RS41-SG ser=U2750228 Radiosonde
G4VFL-14U27502282022-12-07 12:22:0853.6382-2.771021478124259Clb=4.5m/s t=-65.7C h=6.6% 405.10MHz Type=RS41-SG Details on http://radiosondy.info
G4VFL-14U27502282022-12-07 12:21:5553.7148-2.854791635421533Clb=5.1m/s t=-63.6C h=5.9% 405.10MHz Type=RS41-SG batt=2.5V Details on http://radiosondy.info
F5RZC-14U27502282022-12-07 12:21:4353.7155-2.855241615421505Clb=4.7m/s t=-63.3C h=6.1% 405.10MHz Type=RS41-SG Details on http://radiosondy.info
G4VFL-14U27502282022-12-07 12:21:2453.7167-2.855781615621454Clb=4.5m/s t=-62.9C h=5.8% 405.10MHz Type=RS41-SG Details on http://radiosondy.info
G3HRZU27502282022-12-07 12:21:2353.7168-2.855851605421449Clb=4.5m/s t=-63.0C h=1.7% p=-1.0hPa 405.101 MHz Type=RS41-SG ser=U2750228 Radiosonde
F5RZC-14U27502282022-12-07 12:21:1453.7174-2.856161635721427Clb=6.1m/s t=-62.7C h=5.7% 405.10MHz Type=RS41-SG Details on http://radiosondy.info
G4VFL-14U27502282022-12-07 12:20:5353.7187-2.856751645921373Clb=4.7m/s t=-62.3C h=5.7% 405.10MHz Type=RS41-SG Details on http://radiosondy.info
F5RZC-14U27502282022-12-07 12:20:4153.7194-2.857151645921345Clb=5.3m/s t=-62.0C h=5.5% 405.10MHz Type=RS41-SG TxPastBurst=8h30m batt=2.5V Details on http://radiosondy.info
G4VFL-14U27502282022-12-07 12:20:1853.7208-2.85771646321292Clb=6.0m/s t=-61.6C h=5.4% 405.10MHz Type=RS41-SG TxPastBurst=8h30m batt=2.6V Details on http://radiosondy.info
G3HRZU27502282022-12-07 12:20:1553.7211-2.857871616321281Clb=5.1m/s t=-61.6C h=1.5% p=-1.0hPa 405.101 MHz Type=RS41-SG ser=U2750228 Radiosonde
F5RZC-14U27502282022-12-07 12:20:0853.7216-2.858111655621264Clb=5.3m/s t=-61.7C h=5.2% 405.10MHz Type=RS41-SG Details on http://radiosondy.info
G4VFL-14U27502282022-12-07 12:19:4653.7232-2.858871596321205Clb=6.2m/s t=-61.5C h=5.2% 405.10MHz Type=RS41-SG Details on http://radiosondy.info
G3HRZU27502282022-12-07 12:19:0553.7259-2.860441586921115Clb=6.0m/s t=-61.4C h=1.5% p=-1.0hPa 405.101 MHz Type=RS41-SG ser=U2750228 Radiosonde
G3HRZU27502282022-12-07 12:17:5853.7305-2.864491456320958Clb=5.1m/s t=-62.4C h=1.6% p=-1.0hPa 405.101 MHz Type=RS41-SG ser=U2750228 Radiosonde
G4VFL-14U27502282022-12-07 12:17:1553.7328-2.867771406120861Clb=4.5m/s t=-61.4C h=5.3% 405.10MHz Type=RS41-SG Details on http://radiosondy.info
G3HRZU27502282022-12-07 12:16:5753.734-2.869441345220818Clb=4.5m/s t=-61.5C h=1.6% p=-1.0hPa 405.101 MHz Type=RS41-SG ser=U2750228 Radiosonde
G4VFL-14U27502282022-12-07 12:16:4953.7345-2.870321365420793Clb=5.4m/s t=-62.1C h=5.4% 405.10MHz Type=RS41-SG batt=2.5V Details on http://radiosondy.info
G4VFL-14U27502282022-12-07 12:16:1853.7359-2.873011345420726Clb=3.6m/s t=-62.1C h=5.5% 405.10MHz Type=RS41-SG Details on http://radiosondy.info
G3HRZU27502282022-12-07 12:16:0153.7367-2.874791334820687Clb=3.5m/s t=-62.1C h=1.6% p=-1.0hPa 405.101 MHz Type=RS41-SG ser=U2750228 Radiosonde
G4VFL-14U27502282022-12-07 12:15:5353.7372-2.875611385420667Clb=4.1m/s t=-62.2C h=5.6% 405.10MHz Type=RS41-SG Details on http://radiosondy.info
F5RZC-14U27502282022-12-07 12:15:3553.738-2.877071345420634Clb=4.2m/s t=-62.3C h=5.6% 405.10MHz Type=RS41-SG Details on http://radiosondy.info
G4VFL-14U27502282022-12-07 12:15:2353.7387-2.878121415620607Clb=4.4m/s t=-62.3C h=5.6% 405.10MHz Type=RS41-SG batt=2.5V Details on http://radiosondy.info
F5RZC-14U27502282022-12-07 12:15:0753.7396-2.879521395420572Clb=4.4m/s t=-62.2C h=5.6% 405.10MHz Type=RS41-SG batt=2.6V Details on http://radiosondy.info
G3HRZU27502282022-12-07 12:15:0653.7397-2.879671395620569Clb=3.7m/s t=-62.3C h=1.7% p=-1.0hPa 405.101 MHz Type=RS41-SG ser=U2750228 Radiosonde
G4VFL-14U27502282022-12-07 12:14:5453.7404-2.880571445620547Clb=3.3m/s t=-62.1C h=5.7% 405.10MHz Type=RS41-SG Details on http://radiosondy.info
M0DMP-12U27502282022-12-07 12:14:4853.7407-2.880981355220536Clb=4.2m/s t=-273.0C h=-1.0% p=-1.0hPa 405.100 MHz Type=RS41 Radiosonde auto_rx v1.5.9
F5RZC-14U27502282022-12-07 12:14:3853.7411-2.881791375920518Clb=3.1m/s t=-61.8C h=5.6% 405.10MHz Type=RS41-SG Details on http://radiosondy.info
G4VFL-14U27502282022-12-07 12:14:2153.742-2.883171355920488Clb=4.2m/s t=-61.6C h=5.4% 405.10MHz Type=RS41-SG Details on http://radiosondy.info
F5RZC-14U27502282022-12-07 12:14:0953.7427-2.884371365220462Clb=3.9m/s t=-61.6C h=5.5% 405.10MHz Type=RS41-SG Details on http://radiosondy.info
G3HRZU27502282022-12-07 12:14:0553.7429-2.884721345920454Clb=3.9m/s t=-61.7C h=1.6% p=-1.0hPa 405.101 MHz Type=RS41-SG ser=U2750228 Radiosonde
G4VFL-14U27502282022-12-07 12:13:5253.7436-2.886031265620426Clb=3.9m/s t=-61.5C h=5.4% 405.10MHz Type=RS41-SG TxPastBurst=8h30m batt=2.7V Details on http://radiosondy.info
G3HRZU27502282022-12-07 12:13:0153.7455-2.890681215220327Clb=3.6m/s t=-62.1C h=1.7% p=-1.0hPa 405.101 MHz Type=RS41-SG ser=U2750228 Radiosonde
M0DMP-12U27502282022-12-07 12:12:4553.7461-2.892331275620286Clb=5.1m/s t=-273.0C h=-1.0% p=-1.0hPa 405.100 MHz Type=RS41 Radiosonde auto_rx v1.5.9
G3HRZU27502282022-12-07 12:11:5053.7474-2.895991083020188Clb=5.2m/s t=-62.0C h=1.6% p=-1.0hPa 405.101 MHz Type=RS41-SG ser=U2750228 Radiosonde
G4VFL-14U27502282022-12-07 12:11:1353.7483-2.898141203920113Clb=4.9m/s t=-62.2C h=5.7% 405.10MHz Type=RS41-SG Details on http://radiosondy.info
G3HRZU27502282022-12-07 12:10:4253.7493-2.900021293920041Clb=5.1m/s t=-61.9C h=1.7% p=-1.0hPa 405.101 MHz Type=RS41-SG ser=U2750228 Radiosonde
G4VFL-14U27502282022-12-07 12:10:4053.7493-2.900151304620036Clb=4.5m/s t=-61.9C h=5.5% 405.10MHz Type=RS41-SG Details on http://radiosondy.info
M0DMP-12U27502282022-12-07 12:10:3053.75-2.901281344819995Clb=4.6m/s t=-273.0C h=-1.0% p=-1.0hPa 405.100 MHz Type=RS41 Radiosonde auto_rx v1.5.9
G4VFL-14U27502282022-12-07 12:09:5853.7506-2.902361385019956Clb=5.5m/s t=-62.1C h=5.6% 405.10MHz Type=RS41-SG batt=2.7V Details on http://radiosondy.info
G3HRZU27502282022-12-07 12:09:2853.752-2.904161425019889Clb=4.4m/s t=-61.7C h=1.7% p=-1.0hPa 405.101 MHz Type=RS41-SG ser=U2750228 Radiosonde
G4VFL-14U27502282022-12-07 12:09:2553.7521-2.904291405019884Clb=5.3m/s t=-61.8C h=5.5% 405.10MHz Type=RS41-SG Details on http://radiosondy.info
F5RZC-14U27502282022-12-07 12:09:0653.7528-2.905361445419846Clb=4.2m/s t=-62.0C h=5.6% 405.10MHz Type=RS41-SG batt=2.5V Details on http://radiosondy.info
G4VFL-14U27502282022-12-07 12:08:5253.7535-2.906341375419817Clb=4.5m/s t=-62.0C h=5.5% 405.10MHz Type=RS41-SG Details on http://radiosondy.info
F5RZC-14U27502282022-12-07 12:08:3353.7543-2.907621365219784Clb=3.6m/s t=-62.1C h=5.5% 405.10MHz Type=RS41-SG Details on http://radiosondy.info
G4VFL-14U27502282022-12-07 12:08:1953.7549-2.908741285419756Clb=3.8m/s t=-62.7C h=5.8% 405.10MHz Type=RS41-SG batt=2.5V Details on http://radiosondy.info
F5RZC-14U27502282022-12-07 12:07:5953.7556-2.910081315619726Clb=4.2m/s t=-63.0C h=5.8% 405.10MHz Type=RS41-SG Details on http://radiosondy.info
G4VFL-14U27502282022-12-07 12:07:4453.7562-2.911521255419696Clb=4.5m/s t=-63.1C h=6.1% 405.10MHz Type=RS41-SG Details on http://radiosondy.info
F5RZC-14U27502282022-12-07 12:07:2653.7567-2.912921214319671Clb=4.4m/s t=-62.9C h=5.9% 405.10MHz Type=RS41-SG TxPastBurst=8h30m batt=2.5V Details on http://radiosondy.info
G3HRZU27502282022-12-07 12:07:1253.7572-2.914371184119640Clb=3.3m/s t=-62.7C h=1.8% p=-1.0hPa 405.101 MHz Type=RS41-SG ser=U2750228 Radiosonde
G4VFL-14U27502282022-12-07 12:07:1053.7573-2.914521204419637Clb=3.7m/s t=-62.6C h=5.8% 405.10MHz Type=RS41-SG Details on http://radiosondy.info
G3HRZU27502282022-12-07 12:06:0553.7587-2.919121193319519Clb=3.8m/s t=-62.5C h=1.8% p=-1.0hPa 405.101 MHz Type=RS41-SG ser=U2750228 Radiosonde
G3HRZU27502282022-12-07 12:04:5953.7599-2.922331281719384Clb=4.3m/s t=-62.0C h=1.8% p=-1.0hPa 405.101 MHz Type=RS41-SG ser=U2750228 Radiosonde
G4VFL-14U27502282022-12-07 12:04:3953.7603-2.923141432619342Clb=4.9m/s t=-61.8C h=5.6% 405.10MHz Type=RS41-SG TxPastBurst=8h30m batt=2.7V Details on http://radiosondy.info
G4VFL-14U27502282022-12-07 12:04:0553.7611-2.924131483119277Clb=3.9m/s t=-61.9C h=5.7% 405.10MHz Type=RS41-SG Details on http://radiosondy.info
G3HRZU27502282022-12-07 12:03:5853.7616-2.924451522619250Clb=4.2m/s t=-62.1C h=1.7% p=-1.0hPa 405.101 MHz Type=RS41-SG ser=U2750228 Radiosonde
G4VFL-14U27502282022-12-07 12:03:4853.7623-2.924931613719207Clb=4.0m/s t=-61.7C h=5.7% 405.10MHz Type=RS41-SG Details on http://radiosondy.info
G4VFL-14U27502282022-12-07 12:03:4053.7637-2.925951553519138Clb=4.8m/s t=-61.2C h=5.4% 405.10MHz Type=RS41-SG batt=2.5V Details on http://radiosondy.info
G3HRZU27502282022-12-07 12:03:3353.7642-2.926331583519112Clb=4.9m/s t=-61.3C h=1.7% p=-1.0hPa 405.101 MHz Type=RS41-SG ser=U2750228 Radiosonde
F5RZC-14U27502282022-12-07 12:03:3053.7643-2.926441573719103Clb=4.6m/s t=-61.3C h=5.4% 405.10MHz Type=RS41-SG Details on http://radiosondy.info
G4VFL-14U27502282022-12-07 12:03:2453.7649-2.927021484319069Clb=4.6m/s t=-61.4C h=5.6% 405.10MHz Type=RS41-SG Details on http://radiosondy.info
F5RZC-14U27502282022-12-07 12:03:1553.7655-2.927641484819038Clb=4.2m/s t=-61.5C h=5.5% 405.10MHz Type=RS41-SG Details on http://radiosondy.info
G4VFL-14U27502282022-12-07 12:03:0353.7663-2.928571485418999Clb=3.9m/s t=-61.6C h=5.4% 405.10MHz Type=RS41-SG Details on http://radiosondy.info
G3HRZU27502282022-12-07 12:02:5653.7669-2.929181505718977Clb=4.9m/s t=-61.5C h=1.7% p=-1.0hPa 405.101 MHz Type=RS41-SG ser=U2750228 Radiosonde
F5RZC-14U27502282022-12-07 12:02:5453.767-2.929291535618973Clb=3.9m/s t=-61.5C h=5.6% 405.10MHz Type=RS41-SG batt=2.6V Details on http://radiosondy.info
G3HRZU27502282022-12-07 12:02:5353.7806-2.944161395718385Clb=5.6m/s t=-61.0C h=1.7% p=-1.0hPa 405.101 MHz Type=RS41-SG ser=U2750228 Radiosonde
G4VFL-14U27502282022-12-07 12:02:5253.7813-2.945091395618356Clb=5.1m/s t=-60.9C h=5.3% 405.10MHz Type=RS41-SG Details on http://radiosondy.info
G4VFL-14U27502282022-12-07 12:02:5153.7828-2.947521375418285Clb=5.4m/s t=-60.8C h=5.3% 405.10MHz Type=RS41-SG Details on http://radiosondy.info
F5RZC-14U27502282022-12-07 12:02:5053.7833-2.948441375018256Clb=4.0m/s t=-60.8C h=5.3% 405.10MHz Type=RS41-SG Details on http://radiosondy.info
F5RZC-14U27502282022-12-07 12:02:4953.7847-2.950581405218188Clb=4.5m/s t=-60.7C h=5.3% 405.10MHz Type=RS41-SG batt=2.5V Details on http://radiosondy.info
G4VFL-14U27502282022-12-07 12:02:4653.7857-2.952021364818146Clb=4.7m/s t=-60.9C h=5.6% 405.10MHz Type=RS41-SG Details on http://radiosondy.info
F5RZC-14U27502282022-12-07 12:02:4153.7862-2.952711434818124Clb=4.9m/s t=-60.7C h=5.4% 405.10MHz Type=RS41-SG Details on http://radiosondy.info
G3HRZU27502282022-12-07 12:02:3653.7866-2.953321414618104Clb=3.5m/s t=-60.7C h=1.7% p=-1.0hPa 405.101 MHz Type=RS41-SG ser=U2750228 Radiosonde
G4VFL-14U27502282022-12-07 12:02:2753.787-2.953971435018082Clb=3.8m/s t=-60.3C h=5.5% 405.10MHz Type=RS41-SG Details on http://radiosondy.info
F5RZC-14U27502282022-12-07 12:02:2053.7875-2.954561465018063Clb=3.9m/s t=-60.3C h=5.4% 405.10MHz Type=RS41-SG Details on http://radiosondy.info
G4VFL-14U27502282022-12-07 12:02:0353.7886-2.956061395218020Clb=3.7m/s t=-60.0C h=5.3% 405.10MHz Type=RS41-SG batt=2.5V Details on http://radiosondy.info
G3HRZU27502282022-12-07 12:01:5953.7897-2.957361395217984Clb=4.4m/s t=-59.8C h=1.8% p=-1.0hPa 405.101 MHz Type=RS41-SG ser=U2750228 Radiosonde
G3HRZU27502282022-12-07 12:01:5653.7929-2.961781364617875Clb=4.1m/s t=-60.0C h=1.7% p=-1.0hPa 405.101 MHz Type=RS41-SG ser=U2750228 Radiosonde
G4VFL-14U27502282022-12-07 12:01:5253.7956-2.965421454617778Clb=4.0m/s t=-60.8C h=5.4% 405.10MHz Type=RS41-SG Details on http://radiosondy.info
G4VFL-14U27502282022-12-07 12:01:5153.797-2.967231435217728Clb=2.9m/s t=-60.8C h=5.4% 405.10MHz Type=RS41-SG Details on http://radiosondy.info
G4VFL-14U27502282022-12-07 12:01:4953.7985-2.969241425217676Clb=4.5m/s t=-61.3C h=5.7% 405.10MHz Type=RS41-SG TxPastBurst=8h30m batt=2.7V Details on http://radiosondy.info
G4VFL-14U27502282022-12-07 12:01:4853.8001-2.971541364417617Clb=3.2m/s t=-61.4C h=5.6% 405.10MHz Type=RS41-SG Details on http://radiosondy.info
F5RZC-14U27502282022-12-07 12:01:4753.8007-2.972561334317589Clb=4.6m/s t=-61.3C h=5.6% 405.10MHz Type=RS41-SG TxPastBurst=8h30m batt=2.5V Details on http://radiosondy.info
G4VFL-14U27502282022-12-07 12:01:4653.8012-2.973651233717556Clb=4.5m/s t=-61.3C h=5.6% 405.10MHz Type=RS41-SG Details on http://radiosondy.info
G4VFL-14U27502282022-12-07 12:01:4553.8021-2.975641243517487Clb=5.0m/s t=-61.1C h=5.5% 405.10MHz Type=RS41-SG batt=2.7V Details on http://radiosondy.info
F5RZC-14U27502282022-12-07 12:01:4253.8024-2.976471253317461Clb=4.3m/s t=-60.9C h=5.5% 405.10MHz Type=RS41-SG Details on http://radiosondy.info
G4VFL-14U27502282022-12-07 12:01:3653.803-2.977441353517416Clb=3.9m/s t=-61.0C h=5.6% 405.10MHz Type=RS41-SG Details on http://radiosondy.info
G3HRZU27502282022-12-07 12:01:3353.8031-2.977671273517407Clb=4.4m/s t=-60.9C h=1.9% p=-1.0hPa 405.101 MHz Type=RS41-SG ser=U2750228 Radiosonde
F5RZC-14U27502282022-12-07 12:01:2853.8032-2.978011364117394Clb=4.7m/s t=-60.8C h=5.4% 405.10MHz Type=RS41-SG batt=2.7V Details on http://radiosondy.info
G4VFL-14U27502282022-12-07 12:01:0953.804-2.979011383717343Clb=5.4m/s t=-60.5C h=5.4% 405.10MHz Type=RS41-SG Details on http://radiosondy.info
G3HRZU27502282022-12-07 12:00:3653.8052-2.980691444317260Clb=4.4m/s t=-60.9C h=1.9% p=-1.0hPa 405.101 MHz Type=RS41-SG ser=U2750228 Radiosonde
G3HRZU27502282022-12-07 11:59:3253.8081-2.984231434617106Clb=5.2m/s t=-59.6C h=1.7% p=-1.0hPa 405.101 MHz Type=RS41-SG ser=U2750228 Radiosonde
G4VFL-14U27502282022-12-07 11:58:4353.8102-2.986991404616994Clb=4.8m/s t=-59.5C h=5.2% 405.10MHz Type=RS41-SG batt=2.5V Details on http://radiosondy.info
G3HRZU27502282022-12-07 11:58:2453.811-2.988231344116951Clb=5.4m/s t=-59.3C h=1.7% p=-1.0hPa 405.101 MHz Type=RS41-SG ser=U2750228 Radiosonde
G4VFL-14U27502282022-12-07 11:58:1053.8115-2.989091364416919Clb=4.5m/s t=-59.1C h=5.0% 405.10MHz Type=RS41-SG Details on http://radiosondy.info
G4VFL-14U27502282022-12-07 11:57:3453.8126-2.991161334116853Clb=4.8m/s t=-58.9C h=5.0% 405.10MHz Type=RS41-SG Details on http://radiosondy.info
G3HRZU27502282022-12-07 11:57:1353.8132-2.992271374116813Clb=5.0m/s t=-58.6C h=1.8% p=-1.0hPa 405.101 MHz Type=RS41-SG ser=U2750228 Radiosonde
G4VFL-14U27502282022-12-07 11:56:5953.8137-2.992981394416787Clb=4.9m/s t=-58.4C h=5.0% 405.10MHz Type=RS41-SG TxPastBurst=8h30m batt=2.5V Details on http://radiosondy.info
F5RZC-14U27502282022-12-07 11:56:4153.8144-2.99391494616752Clb=4.6m/s t=-58.2C h=4.7% 405.10MHz Type=RS41-SG Details on http://radiosondy.info
G4VFL-14U27502282022-12-07 11:56:2653.8151-2.994651494616722Clb=3.3m/s t=-58.0C h=4.8% 405.10MHz Type=RS41-SG Details on http://radiosondy.info
F5RZC-14U27502282022-12-07 11:56:1053.8159-2.995451474616691Clb=4.3m/s t=-58.6C h=4.9% 405.10MHz Type=RS41-SG Details on http://radiosondy.info
G3HRZU27502282022-12-07 11:56:0653.8162-2.995781474416679Clb=4.5m/s t=-58.8C h=1.8% p=-1.0hPa 405.101 MHz Type=RS41-SG ser=U2750228 Radiosonde
G4VFL-14U27502282022-12-07 11:55:5553.8166-2.996261554816658Clb=5.0m/s t=-58.9C h=5.0% 405.10MHz Type=RS41-SG Details on http://radiosondy.info
F5RZC-14U27502282022-12-07 11:55:4253.8174-2.996811584616630Clb=3.1m/s t=-59.0C h=5.0% 405.10MHz Type=RS41-SG batt=2.5V Details on http://radiosondy.info
G4VFL-14U27502282022-12-07 11:55:2453.8183-2.997581534616596Clb=3.7m/s t=-59.3C h=5.1% 405.10MHz Type=RS41-SG batt=2.7V Details on http://radiosondy.info
F5RZC-14U27502282022-12-07 11:55:1353.819-2.998081534616574Clb=4.2m/s t=-59.4C h=5.3% 405.10MHz Type=RS41-SG Details on http://radiosondy.info
G3HRZU27502282022-12-07 11:55:0853.8193-2.998351494416563Clb=3.7m/s t=-59.3C h=1.8% p=-1.0hPa 405.101 MHz Type=RS41-SG ser=U2750228 Radiosonde
G4VFL-14U27502282022-12-07 11:54:5553.82-2.999111494616538Clb=3.3m/s t=-59.3C h=5.1% 405.10MHz Type=RS41-SG Details on http://radiosondy.info
G3HRZU27502282022-12-07 11:54:1153.8225-3.00221375616447Clb=4.7m/s t=-59.4C h=1.9% p=-1.0hPa 405.101 MHz Type=RS41-SG ser=U2750228 Radiosonde
G3HRZU27502282022-12-07 11:53:0953.8252-3.007411274816318Clb=3.9m/s t=-59.1C h=1.8% p=-1.0hPa 405.101 MHz Type=RS41-SG ser=U2750228 Radiosonde
G4VFL-14U27502282022-12-07 11:52:0853.8276-3.01181374416184Clb=4.8m/s t=-58.4C h=5.0% 405.10MHz Type=RS41-SG Details on http://radiosondy.info
G3HRZU27502282022-12-07 11:52:0553.8277-3.012051364316175Clb=3.5m/s t=-58.4C h=1.7% p=-1.0hPa 405.101 MHz Type=RS41-SG ser=U2750228 Radiosonde
G4VFL-14U27502282022-12-07 11:51:4853.8289-3.01411374316108Clb=4.9m/s t=-57.7C h=4.8% 405.10MHz Type=RS41-SG batt=2.5V Details on http://radiosondy.info
G4VFL-14U27502282022-12-07 11:51:3353.83-3.015951424616039Clb=4.7m/s t=-57.7C h=4.8% 405.10MHz Type=RS41-SG Details on http://radiosondy.info
M0DMP-12U27502282022-12-07 11:51:3053.8306-3.016721454816010Clb=4.4m/s t=-273.0C h=-1.0% p=-1.0hPa 405.100 MHz Type=RS41 Radiosonde auto_rx v1.5.9
F5RZC-14U27502282022-12-07 11:51:2453.8309-3.017081404415995Clb=4.4m/s t=-57.4C h=4.7% 405.10MHz Type=RS41-SG Details on http://radiosondy.info
G4VFL-14U27502282022-12-07 11:51:1853.8555-3.04541394415140Clb=4.2m/s t=-59.6C h=5.4% 405.10MHz Type=RS41-SG TxPastBurst=8h30m batt=2.7V Details on http://radiosondy.info
G4VFL-14U27502282022-12-07 11:51:1753.8567-3.047351384115080Clb=4.6m/s t=-59.4C h=5.4% 405.10MHz Type=RS41-SG Details on http://radiosondy.info
M0DMP-12U27502282022-12-07 11:51:1553.859-3.0521193314929Clb=5.4m/s t=-273.0C h=-1.0% p=-1.0hPa 405.101 MHz Type=RS41 Radiosonde auto_rx v1.5.9
G3HRZU27502282022-12-07 11:51:1453.859-3.052131173514924Clb=4.1m/s t=-58.6C h=1.9% p=-1.0hPa 405.101 MHz Type=RS41-SG ser=U2750228 Radiosonde
G3HRZU27502282022-12-07 11:51:1253.8602-3.055741142814784Clb=3.9m/s t=-57.3C h=1.8% p=-1.0hPa 405.101 MHz Type=RS41-SG ser=U2750228 Radiosonde
G4VFL-14U27502282022-12-07 11:51:0653.8611-3.058081303314684Clb=5.6m/s t=-56.5C h=4.7% 405.10MHz Type=RS41-SG batt=2.6V Details on http://radiosondy.info
G3HRZU27502282022-12-07 11:50:5153.8617-3.059321263014634Clb=4.5m/s t=-56.1C h=1.7% p=-1.0hPa 405.101 MHz Type=RS41-SG ser=U2750228 Radiosonde
G4VFL-14U27502282022-12-07 11:50:4553.8619-3.059721353514616Clb=4.0m/s t=-55.9C h=4.6% 405.10MHz Type=RS41-SG Details on http://radiosondy.info
G4VFL-14U27502282022-12-07 11:50:1753.8628-3.061321343514550Clb=5.2m/s t=-55.6C h=4.4% 405.10MHz Type=RS41-SG Details on http://radiosondy.info
F5RZC-14U27502282022-12-07 11:50:0253.8633-3.062031433514514Clb=4.9m/s t=-55.7C h=4.4% 405.10MHz Type=RS41-SG Details on http://radiosondy.info
G3HRZU27502282022-12-07 11:49:5553.8636-3.062411433714496Clb=3.9m/s t=-55.9C h=1.8% p=-1.0hPa 405.101 MHz Type=RS41-SG ser=U2750228 Radiosonde
G4VFL-14U27502282022-12-07 11:49:4853.8639-3.062781463314479Clb=4.7m/s t=-56.1C h=4.6% 405.10MHz Type=RS41-SG batt=2.6V Details on http://radiosondy.info
F5RZC-14U27502282022-12-07 11:49:3753.8644-3.063361423714449Clb=3.6m/s t=-55.9C h=4.5% 405.10MHz Type=RS41-SG Details on http://radiosondy.info
G4VFL-14U27502282022-12-07 11:49:2353.8649-3.064181383914414Clb=4.3m/s t=-55.7C h=4.6% 405.10MHz Type=RS41-SG Details on http://radiosondy.info
F5RZC-14U27502282022-12-07 11:49:0753.8654-3.064941404114385Clb=4.2m/s t=-55.8C h=4.5% 405.10MHz Type=RS41-SG TxPastBurst=8h30m batt=2.7V Details on http://radiosondy.info
G3HRZU27502282022-12-07 11:49:0053.8658-3.065611363914361Clb=3.6m/s t=-55.8C h=1.8% p=-1.0hPa 405.101 MHz Type=RS41-SG ser=U2750228 Radiosonde
G4VFL-14U27502282022-12-07 11:48:5353.8661-3.065971354414349Clb=3.8m/s t=-55.8C h=4.6% 405.10MHz Type=RS41-SG Details on http://radiosondy.info
F5RZC-14U27502282022-12-07 11:48:4253.8665-3.066691415614324Clb=3.3m/s t=-55.7C h=4.5% 405.10MHz Type=RS41-SG Details on http://radiosondy.info
G4VFL-14U27502282022-12-07 11:48:2353.8674-3.067981374114284Clb=3.8m/s t=-55.8C h=4.6% 405.10MHz Type=RS41-SG TxPastBurst=8h30m batt=2.7V Details on http://radiosondy.info
G3HRZU27502282022-12-07 11:48:0353.8682-3.069381334314237Clb=3.9m/s t=-55.8C h=1.8% p=-1.0hPa 405.101 MHz Type=RS41-SG ser=U2750228 Radiosonde
G3HRZU27502282022-12-07 11:47:0253.8707-3.07311324314125Clb=4.1m/s t=-56.5C h=2.1% p=-1.0hPa 405.101 MHz Type=RS41-SG ser=U2750228 Radiosonde
G4VFL-14U27502282022-12-07 11:46:1053.8731-3.076141514614032Clb=2.6m/s t=-56.8C h=5.0% 405.10MHz Type=RS41-SG Details on http://radiosondy.info
G3HRZU27502282022-12-07 11:46:0353.8735-3.076461564314019Clb=3.9m/s t=-56.9C h=2.2% p=-1.0hPa 405.101 MHz Type=RS41-SG ser=U2750228 Radiosonde
G4VFL-14U27502282022-12-07 11:45:4253.8748-3.077421545013982Clb=3.0m/s t=-57.5C h=5.3% 405.10MHz Type=RS41-SG Details on http://radiosondy.info
G4VFL-14U27502282022-12-07 11:45:1153.8765-3.078931535613931Clb=2.7m/s t=-57.9C h=5.4% 405.10MHz Type=RS41-SG batt=2.6V Details on http://radiosondy.info
G3HRZU27502282022-12-07 11:45:0553.8769-3.079191615413922Clb=2.7m/s t=-57.9C h=2.5% p=-1.0hPa 405.101 MHz Type=RS41-SG ser=U2750228 Radiosonde
G4VFL-14U27502282022-12-07 11:44:4253.8786-3.080291605913882Clb=3.2m/s t=-58.1C h=5.6% 405.10MHz Type=RS41-SG Details on http://radiosondy.info
F5RZC-14U27502282022-12-07 11:44:2753.8796-3.080941585913861Clb=3.5m/s t=-58.4C h=5.7% 405.10MHz Type=RS41-SG Details on http://radiosondy.info
G4VFL-14U27502282022-12-07 11:44:0953.8808-3.081821556313832Clb=2.6m/s t=-58.7C h=5.7% 405.10MHz Type=RS41-SG Details on http://radiosondy.info
G3HRZU27502282022-12-07 11:44:0753.8811-3.082051526313825Clb=3.6m/s t=-58.8C h=2.7% p=-1.0hPa 405.101 MHz Type=RS41-SG ser=U2750228 Radiosonde
F5RZC-14U27502282022-12-07 11:44:0153.8816-3.082551526513811Clb=4.0m/s t=-58.7C h=5.8% calibration 98% 405.10MHz Type=RS41-SG batt=2.6V Details on http://radiosondy.info
G4VFL-14U27502282022-12-07 11:44:0053.883-3.08391506713776Clb=3.4m/s t=-59.1C h=6.0% 405.10MHz Type=RS41-SG batt=2.6V Details on http://radiosondy.info
G4VFL-14U27502282022-12-07 11:43:5653.8851-3.08651376713712Clb=4.2m/s t=-59.3C h=6.1% 405.10MHz Type=RS41-SG Details on http://radiosondy.info
F5RZC-14U27502282022-12-07 11:43:5553.8856-3.087291355013696Clb=4.1m/s t=-59.4C h=6.2% calibration 98% 405.10MHz Type=RS41-SG Details on http://radiosondy.info
G4VFL-14U27502282022-12-07 11:43:5153.887-3.089731316713645Clb=4.2m/s t=-59.2C h=6.1% 405.10MHz Type=RS41-SG Details on http://radiosondy.info
G3HRZU27502282022-12-07 11:43:4753.8886-3.093311256913577Clb=3.5m/s t=-59.4C h=-1.0% p=-1.0hPa 405.101 MHz Type=RS41-SG ser=U2750228 Radiosonde
G3HRZU27502282022-12-07 11:43:2853.8912-3.100051245613448Clb=4.8m/s t=-273.0C h=-1.0% p=-1.0hPa 405.101 MHz Type=RS41 ser=U2750228 Radiosonde
G4VFL-14U27502282022-12-07 11:43:0653.8927-3.103681244113360Clb=5.2m/s t=-59.1C h=6.2% 405.10MHz Type=RS41-SG TxPastBurst=8h30m batt=2.6V Details on http://radiosondy.info
G4VFL-14U27502282022-12-07 11:42:5253.8937-3.105791353513296Clb=4.4m/s t=-59.1C h=6.1% 405.10MHz Type=RS41-SG Details on http://radiosondy.info
G4VFL-14U27502282022-12-07 11:42:4053.8947-3.107251413713240Clb=3.1m/s t=-59.4C h=6.1% 405.10MHz Type=RS41-SG Details on http://radiosondy.info
G4VFL-14U27502282022-12-07 11:42:1553.896-3.108581474413179Clb=3.2m/s t=-59.7C h=6.4% 405.10MHz Type=RS41-SG batt=2.7V Details on http://radiosondy.info
F5RZC-14U27502282022-12-07 11:42:0153.8968-3.10921644313151Clb=3.5m/s calibration 90% 405.10MHz Type=RS41-SG batt=2.5V Details on http://radiosondy.info
G4VFL-14U27502282022-12-07 11:41:4653.8976-3.109671604313121Clb=3.4m/s t=-59.3C h=6.2% 405.10MHz Type=RS41-SG Details on http://radiosondy.info
F5RZC-14U27502282022-12-07 11:41:3553.8983-3.111714413098Clb=2.9m/s calibration 60% Type=RS41-SG Details on http://radiosondy.info
G4VFL-14U27502282022-12-07 11:41:2053.8993-3.110291694613065Clb=2.6m/s t=-58.9C h=6.2% 405.10MHz Type=RS41-SG Details on http://radiosondy.info
F5RZC-14U27502282022-12-07 11:41:0853.8999-3.110481754613043Clb=2.9m/s calibration 31% Type=RS41 Details on http://radiosondy.info
G4VFL-14U27502282022-12-07 11:40:5153.9011-3.110641755213003Clb=3.7m/s t=-58.8C h=6.1% 405.10MHz Type=RS41-SG batt=2.7V Details on http://radiosondy.info
F5RZC-14U27502282022-12-07 11:40:4353.9017-3.110721755212984Clb=4.5m/s calibration 7% Type=RS41 batt=2.6V Details on http://radiosondy.info
G4VFL-14U27502282022-12-07 11:40:2353.9031-3.110961745712944Clb=3.3m/s t=-58.5C h=6.0% 405.10MHz Type=RS41-SG Details on http://radiosondy.info
G4VFL-14U27502282022-12-07 11:38:2853.9136-3.11561577012669Clb=3.8m/s t=-59.1C h=7.0% 405.10MHz Type=RS41-SG Details on http://radiosondy.info
G4VFL-14U27502282022-12-07 11:37:5853.9161-3.117561557212597Clb=5.1m/s t=-58.9C h=7.0% 405.10MHz Type=RS41-SG TxPastBurst=8h30m batt=2.7V Details on http://radiosondy.info
G4VFL-14U27502282022-12-07 11:37:2653.9184-3.119771526912526Clb=4.2m/s t=-60.1C h=8.0% 405.10MHz Type=RS41-SG Details on http://radiosondy.info
G4VFL-14U27502282022-12-07 11:36:5753.9207-3.12191497212458Clb=5.3m/s t=-60.2C h=8.2% 405.10MHz Type=RS41-SG Details on http://radiosondy.info
G4VFL-14U27502282022-12-07 11:36:2753.9231-3.124491496912383Clb=4.6m/s t=-60.6C h=8.9% 405.10MHz Type=RS41-SG batt=2.6V Details on http://radiosondy.info
G4VFL-14U27502282022-12-07 11:35:5853.9254-3.126861445912304Clb=3.7m/s t=-60.5C h=9.0% 405.10MHz Type=RS41-SG Details on http://radiosondy.info
G4VFL-14U27502282022-12-07 11:35:4253.9273-3.129181455612239Clb=4.6m/s t=-60.4C h=9.2% 405.10MHz Type=RS41-SG Details on http://radiosondy.info
G4VFL-14U27502282022-12-07 11:35:2753.9289-3.131251435012182Clb=4.0m/s t=-60.1C h=9.4% 405.10MHz Type=RS41-SG batt=2.6V Details on http://radiosondy.info
M0DMP-12U27502282022-12-07 11:35:0053.9325-3.136051355212049Clb=3.1m/s t=-60.9C h=7.3% p=-1.0hPa 405.101 MHz Type=RS41-SG Radiosonde auto_rx v1.5.9
G4VFL-14U27502282022-12-07 11:34:4253.9354-3.140341474411937Clb=4.3m/s t=-61.2C h=14.2% 405.10MHz Type=RS41-SG Details on http://radiosondy.info
G4VFL-14U27502282022-12-07 11:34:4153.9369-3.141781564111889Clb=3.6m/s t=-61.4C h=16.0% 405.10MHz Type=RS41-SG Details on http://radiosondy.info
G4VFL-14U27502282022-12-07 11:34:4053.9383-3.142831604311818Clb=5.0m/s t=-61.3C h=16.8% 405.10MHz Type=RS41-SG TxPastBurst=8h30m batt=2.7V Details on http://radiosondy.info
G4VFL-14U27502282022-12-07 11:34:2753.9399-3.144091514611759Clb=3.6m/s t=-61.1C h=17.4% 405.10MHz Type=RS41-SG Details on http://radiosondy.info
G4VFL-14U27502282022-12-07 11:34:0153.9415-3.145661525011698Clb=4.4m/s t=-60.9C h=20.4% 405.10MHz Type=RS41-SG Details on http://radiosondy.info
G4VFL-14U27502282022-12-07 11:33:3653.9433-3.147151575411635Clb=3.0m/s t=-60.7C h=21.8% 405.10MHz Type=RS41-SG batt=2.7V Details on http://radiosondy.info
G4VFL-14U27502282022-12-07 11:33:1353.9452-3.148471625711577Clb=4.4m/s t=-60.8C h=23.1% 405.10MHz Type=RS41-SG Details on http://radiosondy.info
G4VFL-14U27502282022-12-07 11:32:4553.9473-3.149441686511509Clb=3.5m/s t=-60.6C h=23.6% 405.10MHz Type=RS41-SG Details on http://radiosondy.info
M0DMP-12U27502282022-12-07 11:32:0053.952-3.151421666111382Clb=4.5m/s t=-60.1C h=17.2% p=-1.0hPa 405.101 MHz Type=RS41-SG Radiosonde auto_rx v1.5.9
M0DMP-12U27502282022-12-07 11:31:3053.9563-3.152911706111257Clb=4.6m/s t=-60.0C h=17.5% p=-1.0hPa 405.101 MHz Type=RS41-SG Radiosonde auto_rx v1.5.9
G4VFL-14U27502282022-12-07 11:31:1853.9579-3.153291765711211Clb=3.6m/s t=-59.8C h=22.6% 405.10MHz Type=RS41-SG batt=2.6V Details on http://radiosondy.info
G4VFL-14U27502282022-12-07 11:31:0353.96-3.15371746311145Clb=3.5m/s t=-60.0C h=22.2% 405.10MHz Type=RS41-SG Details on http://radiosondy.info
M0DMP-12U27502282022-12-07 11:31:0053.9606-3.153821726111129Clb=4.3m/s t=-60.0C h=17.2% p=-1.0hPa 405.101 MHz Type=RS41-SG Radiosonde auto_rx v1.5.9
G4VFL-14U27502282022-12-07 11:30:4853.9624-3.154221756711083Clb=3.7m/s t=-59.7C h=21.8% 405.10MHz Type=RS41-SG Details on http://radiosondy.info
G4VFL-14U27502282022-12-07 11:30:3253.965-3.15471756711015Clb=5.2m/s t=-59.2C h=21.2% 405.10MHz Type=RS41-SG TxPastBurst=8h30m batt=2.7V Details on http://radiosondy.info
M0DMP-12U27502282022-12-07 11:30:3053.9657-3.154831726710997Clb=3.6m/s t=-273.0C h=-1.0% p=-1.0hPa 405.101 MHz Type=RS41-SG Radiosonde auto_rx v1.5.9
G4VFL-14U27502282022-12-07 11:30:1653.9676-3.155341726710946Clb=4.0m/s t=-59.2C h=21.4% 405.10MHz Type=RS41-SG Details on http://radiosondy.info
G4VFL-14U27502282022-12-07 11:30:0053.9703-3.156081716510882Clb=3.6m/s t=-59.0C h=19.6% 405.10MHz Type=RS41-SG Details on http://radiosondy.info
G4VFL-14U27502282022-12-07 11:29:5453.9727-3.156881686910822Clb=3.9m/s t=-58.8C h=19.0% 405.10MHz Type=RS41-SG batt=2.7V Details on http://radiosondy.info
G4VFL-14U27502282022-12-07 11:29:5353.9754-3.157811676710760Clb=4.3m/s t=-58.5C h=19.5% 405.10MHz Type=RS41-SG Details on http://radiosondy.info
M0DMP-12U27502282022-12-07 11:29:2453.9818-3.161681546310606Clb=3.8m/s t=-273.0C h=-1.0% p=-1.0hPa 405.101 MHz Type=RS41-SG Radiosonde auto_rx v1.5.9
M0DMP-12U27502282022-12-07 11:28:3953.9852-3.164461546110522Clb=3.3m/s t=-273.0C h=-1.0% p=-1.0hPa 405.101 MHz Type=RS41 Radiosonde auto_rx v1.5.9
G4VFL-14U27502282022-12-07 11:28:2053.9866-3.165561556510487Clb=2.9m/s t=-57.5C h=18.3% 405.10MHz Type=RS41-SG Details on http://radiosondy.info
G4VFL-14U27502282022-12-07 11:28:0153.9888-3.167241546710433Clb=3.2m/s t=-57.4C h=17.9% 405.10MHz Type=RS41-SG batt=2.7V Details on http://radiosondy.info
M0DMP-12U27502282022-12-07 11:28:0053.99-3.168171586910406Clb=3.2m/s t=-273.0C h=-1.0% p=-1.0hPa 405.101 MHz Type=RS41 Radiosonde auto_rx v1.5.9
G4VFL-14U27502282022-12-07 11:27:4653.9911-3.16891586710380Clb=2.8m/s t=-57.1C h=17.2% 405.10MHz Type=RS41-SG Details on http://radiosondy.info
G4VFL-14U27502282022-12-07 11:27:3053.9936-3.170391626710325Clb=3.8m/s t=-56.7C h=17.2% 405.10MHz Type=RS41-SG Details on http://radiosondy.info
G4VFL-14U27502282022-12-07 11:27:1553.9959-3.171821616710271Clb=4.6m/s t=-56.5C h=17.0% 405.10MHz Type=RS41-SG TxPastBurst=8h30m batt=2.7V Details on http://radiosondy.info
G4VFL-14U27502282022-12-07 11:27:0053.9982-3.173541546510218Clb=3.1m/s t=-56.3C h=17.3% 405.10MHz Type=RS41-SG Details on http://radiosondy.info
G4VFL-14U27502282022-12-07 11:26:4454.0006-3.17541586710162Clb=3.2m/s t=-56.0C h=18.2% 405.10MHz Type=RS41-SG Details on http://radiosondy.info
M0DMP-12U27502282022-12-07 11:26:3054.0028-3.177141567010110Clb=3.1m/s t=-273.0C h=-1.0% p=-1.0hPa 405.101 MHz Type=RS41 Radiosonde auto_rx v1.5.9
G4VFL-14U27502282022-12-07 11:26:2854.003-3.177261556910107Clb=3.8m/s t=-55.5C h=18.0% 405.10MHz Type=RS41-SG batt=2.7V Details on http://radiosondy.info
G4VFL-14U27502282022-12-07 11:25:2454.014-3.1875149679838Clb=2.5m/s t=-53.3C h=15.7% 405.10MHz Type=RS41-SG Details on http://radiosondy.info
G4VFL-14U27502282022-12-07 11:25:1454.016-3.1899142699782Clb=3.3m/s t=-52.8C h=15.7% 405.10MHz Type=RS41-SG Details on http://radiosondy.info
G4VFL-14U27502282022-12-07 11:24:5454.0182-3.19256146709724Clb=4.2m/s t=-52.7C h=15.8% 405.10MHz Type=RS41-SG batt=2.7V Details on http://radiosondy.info
G4VFL-14U27502282022-12-07 11:24:3554.0204-3.19506145699669Clb=3.9m/s t=-52.4C h=16.0% 405.10MHz Type=RS41-SG Details on http://radiosondy.info
G4VFL-14U27502282022-12-07 11:24:1554.0225-3.19742147659616Clb=4.2m/s t=-52.1C h=16.4% 405.10MHz Type=RS41-SG Details on http://radiosondy.info
G4VFL-14U27502282022-12-07 11:23:5854.0247-3.19984146639561Clb=3.0m/s t=-51.8C h=17.0% 405.10MHz Type=RS41-SG TxPastBurst=8h30m batt=2.6V Details on http://radiosondy.info
G4VFL-14U27502282022-12-07 11:23:4254.0268-3.20222146639505Clb=3.9m/s t=-51.5C h=17.0% 405.10MHz Type=RS41-SG Details on http://radiosondy.info
G4VFL-14U27502282022-12-07 11:23:2754.0288-3.20441145659449Clb=3.9m/s t=-50.9C h=16.4% 405.10MHz Type=RS41-SG Details on http://radiosondy.info
M0DMP-12U27502282022-12-07 11:22:3054.037-3.21403143659227Clb=3.3m/s t=-273.0C h=-1.0% p=-1.0hPa 405.101 MHz Type=RS41-SG Radiosonde auto_rx v1.5.9
G4VFL-14U27502282022-12-07 11:22:1954.0377-3.21485146659210Clb=3.0m/s t=-49.1C h=17.4% 405.10MHz Type=RS41-SG batt=2.7V Details on http://radiosondy.info
G4VFL-14U27502282022-12-07 11:22:0354.0398-3.21745144659153Clb=3.2m/s t=-48.8C h=17.7% 405.10MHz Type=RS41-SG Details on http://radiosondy.info
G4VFL-14U27502282022-12-07 11:21:4654.042-3.22025141639094Clb=4.0m/s t=-48.3C h=17.5% 405.10MHz Type=RS41-SG Details on http://radiosondy.info
G4VFL-14U27502282022-12-07 11:21:3154.0438-3.2228140619043Clb=4.0m/s t=-48.0C h=16.9% 405.10MHz Type=RS41-SG batt=2.6V Details on http://radiosondy.info
M0DMP-12U27502282022-12-07 11:21:3054.0451-3.22461138579003Clb=4.0m/s t=-273.0C h=-1.0% p=-1.0hPa 405.101 MHz Type=RS41-SG Radiosonde auto_rx v1.5.9
G4VFL-14U27502282022-12-07 11:21:1654.0455-3.22528139638989Clb=3.2m/s t=-47.8C h=14.9% 405.10MHz Type=RS41-SG Details on http://radiosondy.info
G4VFL-14U27502282022-12-07 11:21:0154.0473-3.2282135618933Clb=2.5m/s t=-47.6C h=13.7% 405.10MHz Type=RS41-SG Details on http://radiosondy.info
G4VFL-14U27502282022-12-07 11:20:4854.049-3.23116132638876Clb=3.2m/s t=-47.4C h=15.0% 405.10MHz Type=RS41-SG TxPastBurst=8h30m batt=2.6V Details on http://radiosondy.info
M0DMP-12U27502282022-12-07 11:20:3254.0507-3.23398133598824Clb=3.8m/s t=-273.0C h=-1.0% p=-1.0hPa 405.101 MHz Type=RS41 Radiosonde auto_rx v1.5.9
G4VFL-14U27502282022-12-07 11:20:2954.0508-3.23417134658820Clb=2.9m/s t=-47.0C h=15.6% 405.10MHz Type=RS41-SG Details on http://radiosondy.info
M0DMP-12U27502282022-12-07 11:20:0054.0542-3.23927143618704Clb=3.8m/s t=-273.0C h=-1.0% p=-1.0hPa 405.101 MHz Type=RS41 Radiosonde auto_rx v1.5.9
G4VFL-14U27502282022-12-07 11:19:1954.0588-3.2449147568569Clb=4.2m/s t=-45.5C h=15.9% 405.10MHz Type=RS41-SG Details on http://radiosondy.info
G4VFL-14U27502282022-12-07 11:19:0354.0607-3.24696148548511Clb=4.0m/s t=-45.4C h=17.4% 405.10MHz Type=RS41-SG batt=2.7V Details on http://radiosondy.info
G4VFL-14U27502282022-12-07 11:18:4854.0624-3.24887148548458Clb=4.0m/s t=-45.2C h=24.8% 405.10MHz Type=RS41-SG Details on http://radiosondy.info
G4VFL-14U27502282022-12-07 11:18:3254.0642-3.25084150528400Clb=4.1m/s t=-44.8C h=27.5% 405.10MHz Type=RS41-SG Details on http://radiosondy.info
G4VFL-14U27502282022-12-07 11:18:1654.0659-3.25266151528341Clb=4.4m/s t=-44.4C h=29.3% 405.10MHz Type=RS41-SG batt=2.7V Details on http://radiosondy.info
G4VFL-14U27502282022-12-07 11:18:0054.0677-3.25443151528281Clb=4.1m/s t=-43.9C h=27.8% 405.10MHz Type=RS41-SG Details on http://radiosondy.info
G4VFL-14U27502282022-12-07 11:17:4454.0695-3.2562151528223Clb=4.0m/s t=-43.3C h=26.1% 405.10MHz Type=RS41-SG Details on http://radiosondy.info
G4VFL-14U27502282022-12-07 11:17:2854.0713-3.25795148528162Clb=4.4m/s t=-42.8C h=25.3% 405.10MHz Type=RS41-SG TxPastBurst=8h30m batt=2.7V Details on http://radiosondy.info
G4VFL-14U27502282022-12-07 11:16:1854.0795-3.26567150547893Clb=4.8m/s t=-40.9C h=26.4% 405.10MHz Type=RS41-SG Details on http://radiosondy.info
G4VFL-14U27502282022-12-07 11:16:0254.0813-3.26753149527829Clb=4.0m/s t=-40.3C h=17.5% 405.10MHz Type=RS41-SG Details on http://radiosondy.info
G4VFL-14U27502282022-12-07 11:15:4754.083-3.26926149567771Clb=3.8m/s t=-40.0C h=24.7% 405.10MHz Type=RS41-SG batt=2.7V Details on http://radiosondy.info
G4VFL-14U27502282022-12-07 11:15:3154.0849-3.27109151567709Clb=3.8m/s t=-39.5C h=30.9% 405.10MHz Type=RS41-SG Details on http://radiosondy.info
M0DMP-12U27502282022-12-07 11:15:3054.087-3.27294153577644Clb=3.3m/s t=-273.0C h=-1.0% p=-1.0hPa 405.101 MHz Type=RS41 Radiosonde auto_rx v1.5.9
G4VFL-14U27502282022-12-07 11:15:1454.087-3.27294154567644Clb=3.2m/s t=-38.9C h=29.1% 405.10MHz Type=RS41-SG Details on http://radiosondy.info
G4VFL-14U27502282022-12-07 11:14:5954.0889-3.27448157567586Clb=3.9m/s t=-38.5C h=26.0% 405.10MHz Type=RS41-SG batt=2.7V Details on http://radiosondy.info
G4VFL-14U27502282022-12-07 11:14:4454.0907-3.27591157567528Clb=2.9m/s t=-37.9C h=25.5% 405.10MHz Type=RS41-SG Details on http://radiosondy.info
G4VFL-14U27502282022-12-07 11:14:2854.0928-3.27732160597468Clb=3.4m/s t=-37.6C h=18.1% 405.10MHz Type=RS41-SG Details on http://radiosondy.info
G4VFL-14U27502282022-12-07 11:13:1454.1033-3.28367159637187Clb=4.3m/s t=-35.9C h=35.2% 405.10MHz Type=RS41-SG TxPastBurst=8h30m batt=2.7V Details on http://radiosondy.info
G4VFL-14U27502282022-12-07 11:12:5954.1055-3.28505159637132Clb=4.0m/s t=-35.4C h=33.3% 405.10MHz Type=RS41-SG Details on http://radiosondy.info
G4VFL-14U27502282022-12-07 11:12:4354.1079-3.28652158637070Clb=4.3m/s t=-34.8C h=30.9% 405.10MHz Type=RS41-SG Details on http://radiosondy.info
G4VFL-14U27502282022-12-07 11:12:2754.1103-3.28808157637007Clb=4.0m/s t=-34.3C h=26.8% 405.10MHz Type=RS41-SG batt=2.7V Details on http://radiosondy.info
G4VFL-14U27502282022-12-07 11:12:1154.1126-3.2898157656946Clb=4.4m/s t=-33.8C h=25.0% 405.10MHz Type=RS41-SG Details on http://radiosondy.info
G4VFL-14U27502282022-12-07 11:11:5654.1147-3.2915156636888Clb=3.4m/s t=-33.3C h=24.6% 405.10MHz Type=RS41-SG Details on http://radiosondy.info
G4VFL-14U27502282022-12-07 11:11:4154.1169-3.29324156656832Clb=3.9m/s t=-32.8C h=24.9% 405.10MHz Type=RS41-SG batt=2.7V Details on http://radiosondy.info
G4VFL-14U27502282022-12-07 11:11:2654.119-3.29497154656777Clb=3.3m/s t=-32.4C h=25.5% 405.10MHz Type=RS41-SG Details on http://radiosondy.info
G4VFL-14U27502282022-12-07 11:10:0654.1304-3.30496151656487Clb=3.0m/s t=-30.1C h=23.4% 405.10MHz Type=RS41-SG Details on http://radiosondy.info
G4VFL-14U27502282022-12-07 11:09:4954.1327-3.30714151676433Clb=3.6m/s t=-29.9C h=21.5% 405.10MHz Type=RS41-SG TxPastBurst=8h30m batt=2.7V Details on http://radiosondy.info
G4VFL-14U27502282022-12-07 11:09:3354.1349-3.30948150656379Clb=2.7m/s t=-29.9C h=7.9% 405.10MHz Type=RS41-SG Details on http://radiosondy.info
G4VFL-14U27502282022-12-07 11:09:1854.137-3.31157149596329Clb=4.4m/s t=-30.1C h=10.2% 405.10MHz Type=RS41-SG Details on http://radiosondy.info
G4VFL-14U27502282022-12-07 11:09:0254.139-3.31366150676274Clb=2.7m/s t=-30.2C h=24.9% 405.10MHz Type=RS41-SG batt=2.7V Details on http://radiosondy.info
G4VFL-14U27502282022-12-07 11:08:4654.1413-3.31601149696222Clb=2.9m/s t=-29.9C h=24.9% 405.10MHz Type=RS41-SG Details on http://radiosondy.info
G4VFL-14U27502282022-12-07 11:07:1554.1548-3.32758157635934Clb=2.5m/s t=-27.8C h=18.6% 405.10MHz Type=RS41-SG Details on http://radiosondy.info
G4VFL-14U27502282022-12-07 11:06:4554.159-3.33095154615842Clb=2.8m/s t=-27.0C h=8.6% 405.10MHz Type=RS41-SG batt=2.7V Details on http://radiosondy.info
G4VFL-14U27502282022-12-07 11:06:3054.161-3.33267153595795Clb=3.6m/s t=-26.8C h=10.2% 405.10MHz Type=RS41-SG Details on http://radiosondy.info
G4VFL-14U27502282022-12-07 11:06:1454.1631-3.33443154615744Clb=3.1m/s t=-26.7C h=12.5% 405.10MHz Type=RS41-SG Details on http://radiosondy.info
G4VFL-14U27502282022-12-07 11:05:5954.1652-3.33615153615695Clb=3.0m/s t=-26.5C h=17.0% 405.10MHz Type=RS41-SG TxPastBurst=8h30m batt=2.9V Details on http://radiosondy.info
G4VFL-14U27502282022-12-07 11:05:4354.1674-3.3378161615624Clb=6.0m/s t=-26.1C h=22.9% 405.10MHz Type=RS41-SG Details on http://radiosondy.info
G4VFL-14U27502282022-12-07 11:05:2754.1697-3.33922158655545Clb=4.7m/s t=-25.7C h=25.9% 405.10MHz Type=RS41-SG Details on http://radiosondy.info
G4VFL-14U27502282022-12-07 11:04:1754.1803-3.34701157655295Clb=2.9m/s t=-23.4C h=23.5% 405.10MHz Type=RS41-SG batt=2.9V Details on http://radiosondy.info
G4VFL-14U27502282022-12-07 11:04:0154.1827-3.34872156635241Clb=4.1m/s t=-23.0C h=19.4% 405.10MHz Type=RS41-SG Details on http://radiosondy.info
G4VFL-14U27502282022-12-07 11:03:4654.1848-3.35038156615189Clb=3.6m/s t=-22.4C h=19.5% 405.10MHz Type=RS41-SG Details on http://radiosondy.info
G4VFL-14U27502282022-12-07 11:03:3154.1869-3.35199157615138Clb=4.2m/s t=-22.0C h=17.6% 405.10MHz Type=RS41-SG batt=2.9V Details on http://radiosondy.info
G4VFL-14U27502282022-12-07 11:03:1354.1895-3.35387157635076Clb=3.0m/s t=-21.4C h=15.9% 405.10MHz Type=RS41-SG Details on http://radiosondy.info
G4VFL-14U27502282022-12-07 11:02:5754.1917-3.35556154615023Clb=2.7m/s t=-20.9C h=19.9% 405.10MHz Type=RS41-SG Details on http://radiosondy.info
G4VFL-14U27502282022-12-07 11:02:4254.1938-3.35716154594972Clb=4.1m/s t=-20.5C h=20.4% 405.10MHz Type=RS41-SG TxPastBurst=8h30m batt=2.7V Details on http://radiosondy.info
G4VFL-14U27502282022-12-07 11:02:2654.1959-3.35887154594918Clb=3.2m/s t=-20.0C h=19.5% 405.10MHz Type=RS41-SG Details on http://radiosondy.info
G4VFL-14U27502282022-12-07 11:00:5554.2078-3.36752161594633Clb=3.0m/s t=-19.2C h=25.5% 405.10MHz Type=RS41-SG Details on http://radiosondy.info
G4VFL-14U27502282022-12-07 11:00:3954.21-3.36882158564585Clb=3.6m/s t=-19.0C h=24.8% 405.10MHz Type=RS41-SG batt=2.9V Details on http://radiosondy.info
G4VFL-14U27502282022-12-07 11:00:2154.2123-3.37048155564531Clb=3.3m/s t=-18.8C h=24.6% 405.10MHz Type=RS41-SG Details on http://radiosondy.info
G4VFL-14U27502282022-12-07 10:58:1454.2286-3.38405159564111Clb=4.3m/s t=-16.2C h=27.2% 405.10MHz Type=RS41-SG Details on http://radiosondy.info
G4VFL-14U27502282022-12-07 10:57:5954.2305-3.38542154564055Clb=3.2m/s t=-15.9C h=30.0% 405.10MHz Type=RS41-SG batt=2.9V Details on http://radiosondy.info
G4VFL-14U27502282022-12-07 10:57:4454.2324-3.38699148524000Clb=3.3m/s t=-16.9C h=62.7% 405.10MHz Type=RS41-SG Details on http://radiosondy.info
G4VFL-14U27502282022-12-07 10:57:2854.2343-3.38842164503943Clb=3.5m/s t=-16.6C h=69.1% 405.10MHz Type=RS41-SG Details on http://radiosondy.info
G4VFL-14U27502282022-12-07 10:57:1354.2361-3.38906168503889Clb=3.4m/s t=-16.2C h=69.8% 405.10MHz Type=RS41-SG TxPastBurst=8h30m batt=2.9V Details on http://radiosondy.info
G4VFL-14U27502282022-12-07 10:56:5854.238-3.38977170523837Clb=4.0m/s t=-16.0C h=75.9% 405.10MHz Type=RS41-SG Details on http://radiosondy.info
G4VFL-14U27502282022-12-07 10:56:4354.2399-3.39041171593782Clb=3.0m/s t=-15.8C h=79.5% 405.10MHz Type=RS41-SG Details on http://radiosondy.info
G4VFL-14U27502282022-12-07 10:56:2754.2422-3.39116172613726Clb=4.2m/s t=-15.4C h=76.0% 405.10MHz Type=RS41-SG batt=2.9V Details on http://radiosondy.info
G4VFL-14U27502282022-12-07 10:55:1954.2516-3.39289167503449Clb=4.9m/s t=-13.1C h=67.4% 405.10MHz Type=RS41-SG Details on http://radiosondy.info
G4VFL-14U27502282022-12-07 10:55:0154.2539-3.39333170523362Clb=3.9m/s t=-12.3C h=67.0% 405.10MHz Type=RS41-SG Details on http://radiosondy.info
G4VFL-14U27502282022-12-07 10:54:4554.2559-3.39401157463292Clb=4.2m/s t=-12.3C h=76.7% 405.10MHz Type=RS41-SG batt=2.9V Details on http://radiosondy.info
G4VFL-14U27502282022-12-07 10:54:3054.2575-3.39491163433223Clb=3.1m/s t=-11.9C h=77.7% 405.10MHz Type=RS41-SG Details on http://radiosondy.info
G4VFL-14U27502282022-12-07 10:54:1554.259-3.39577164433167Clb=4.4m/s t=-11.6C h=81.5% 405.10MHz Type=RS41-SG Details on http://radiosondy.info
G4VFL-14U27502282022-12-07 10:53:5954.2607-3.39666165413108Clb=4.1m/s t=-11.4C h=84.2% 405.10MHz Type=RS41-SG TxPastBurst=8h30m batt=2.9V Details on http://radiosondy.info
G4VFL-14U27502282022-12-07 10:53:4254.2623-3.3975168373045Clb=3.2m/s t=-11.0C h=81.7% 405.10MHz Type=RS41-SG Details on http://radiosondy.info
G4VFL-14U27502282022-12-07 10:53:2754.2636-3.3981167352993Clb=3.0m/s t=-10.7C h=78.8% 405.10MHz Type=RS41-SG Details on http://radiosondy.info
G4VFL-14U27502282022-12-07 10:52:0354.2709-3.40008162312699Clb=3.4m/s t=-8.8C h=72.6% 405.10MHz Type=RS41-SG batt=2.9V Details on http://radiosondy.info
G4VFL-14U27502282022-12-07 10:51:4754.2721-3.40082161312642Clb=3.9m/s t=-8.6C h=71.3% 405.10MHz Type=RS41-SG Details on http://radiosondy.info
G4VFL-14U27502282022-12-07 10:51:3154.2733-3.40137167302588Clb=3.4m/s t=-8.2C h=69.1% 405.10MHz Type=RS41-SG Details on http://radiosondy.info
G4VFL-14U27502282022-12-07 10:51:1554.2745-3.40189160312531Clb=3.8m/s t=-8.0C h=66.8% 405.10MHz Type=RS41-SG batt=2.9V Details on http://radiosondy.info
G4VFL-14U27502282022-12-07 10:50:5954.2757-3.40251162312479Clb=4.2m/s t=-7.6C h=65.0% 405.10MHz Type=RS41-SG Details on http://radiosondy.info
G4VFL-14U27502282022-12-07 10:50:4354.2769-3.40307169352418Clb=2.9m/s t=-7.3C h=60.4% 405.10MHz Type=RS41-SG Details on http://radiosondy.info
G4VFL-14U27502282022-12-07 10:50:2754.2783-3.40342171392370Clb=3.2m/s t=-7.4C h=55.2% calibration 98% 405.10MHz Type=RS41-SG TxPastBurst=8h30m batt=2.9V Details on http://radiosondy.info
G4VFL-14U27502282022-12-07 10:49:1754.2852-3.40471175412164Clb=3.2m/s t=-6.7C h=48.7% calibration 96% 405.10MHz Type=RS41-SG Details on http://radiosondy.info
G4VFL-14U27502282022-12-07 10:49:0154.2868-3.405173442118Clb=3.4m/s t=-6.9C h=47.7% calibration 96% 405.10MHz Type=RS41-SG Details on http://radiosondy.info
G4VFL-14U27502282022-12-07 10:48:4654.2884-3.40506192432064Clb=4.3m/s t=-7.0C h=44.0% calibration 96% 405.10MHz Type=RS41-SG batt=2.9V Details on http://radiosondy.info
G4VFL-14U27502282022-12-07 10:48:3154.29-3.40487189391995Clb=5.0m/s t=-7.0C calibration 92% 405.10MHz Type=RS41-SG Details on http://radiosondy.info
G4VFL-14U27502282022-12-07 10:48:1554.2915-3.40427193371939Clb=2.3m/s calibration 86% 405.10MHz Type=RS41-SG Details on http://radiosondy.info
G4VFL-14U27502282022-12-07 10:47:5954.2929-3.40353190391886Clb=3.3m/s calibration 86% 405.10MHz Type=RS41-SG batt=2.9V Details on http://radiosondy.info
G4VFL-14U27502282022-12-07 10:47:4354.2944-3.4035171411833Clb=4.5m/s calibration 86% 405.10MHz Type=RS41-SG Details on http://radiosondy.info
G4VFL-14U27502282022-12-07 10:47:2754.296-3.40417169351763Clb=3.6m/s calibration 86% 405.10MHz Type=RS41-SG Details on http://radiosondy.info
G4VFL-14U27502282022-12-07 10:46:1554.3012-3.40665173261459Clb=3.2m/s calibration 86% 405.10MHz Type=RS41-SG TxPastBurst=8h30m batt=2.9V Details on http://radiosondy.info
G4VFL-14U27502282022-12-07 10:46:0054.3022-3.40694161241410Clb=3.7m/s calibration 80% 405.10MHz Type=RS41-SG Details on http://radiosondy.info
G4VFL-14U27502282022-12-07 10:45:4554.3031-3.40732165241362Clb=4.2m/s calibration 76% 405.10MHz Type=RS41-SG Details on http://radiosondy.info
G4VFL-14U27502282022-12-07 10:45:3054.3039-3.4076175221307Clb=3.4m/s calibration 74% 405.10MHz Type=RS41-SG batt=2.9V Details on http://radiosondy.info
G4VFL-14U27502282022-12-07 10:45:1454.3048-3.40801165241252Clb=3.0m/s calibration 74% 405.10MHz Type=RS41-SG Details on http://radiosondy.info
G4VFL-14U27502282022-12-07 10:44:5854.3057-3.40839173241199Clb=3.4m/s calibration 62% 405.10MHz Type=RS41-SG Details on http://radiosondy.info
G4VFL-14U27502282022-12-07 10:44:4254.3067-3.40879173241131Clb=3.7m/s calibration 47% 405.10MHz Type=RS41-SG batt=2.9V Details on http://radiosondy.info
G4VFL-14U27502282022-12-07 10:44:2754.3075-3.4091175301081Clb=3.9m/s calibration 37% 405.10MHz Type=RS41 Details on http://radiosondy.info
G4VFL-14U27502282022-12-07 10:43:0554.3126-3.4105818235761Clb=3.8m/s calibration 21% Type=RS41 Details on http://radiosondy.info
G4VFL-14U27502282022-12-07 10:42:4954.3139-3.4105117935693Clb=3.3m/s calibration 7% Type=RS41 batt=2.9V Details on http://radiosondy.info